<?xml version="1.0" encoding="UTF-8" standalone="no" ?>
<gpx xmlns="http://www.topografix.com/GPX/1/1" xmlns:xsi="http://www.w3.org/2001/XMLSchema-instance" xsi:schemaLocation="http://www.topografix.com/GPX/1/1 http://www.topografix.com/GPX/1/1/gpx.xsd" version="1.1" creator="VisuGPX - https://www.visugpx.com">
  <metadata>
    <name>randonnée</name>
    <desc><![CDATA[avec la cote des haricots]]></desc>
  </metadata>
  <trk>
    <name><![CDATA[Tracé actuel: 24 AOU 2020 12:57]]></name>
    <trkseg>
      <trkpt lat="49.63457" lon="4.98038">
        <ele>182.31</ele>
        <time>2020-08-24T10:57:13Z</time>
      </trkpt>
      <trkpt lat="49.6345" lon="4.98047">
        <ele>181.83</ele>
        <time>2020-08-24T10:57:39Z</time>
      </trkpt>
      <trkpt lat="49.63444" lon="4.98051">
        <ele>179.9</ele>
        <time>2020-08-24T10:58:03Z</time>
      </trkpt>
      <trkpt lat="49.63442" lon="4.98051">
        <ele>180.38</ele>
        <time>2020-08-24T10:58:05Z</time>
      </trkpt>
      <trkpt lat="49.6346" lon="4.98035">
        <ele>179.9</ele>
        <time>2020-08-24T10:59:20Z</time>
      </trkpt>
      <trkpt lat="49.63441" lon="4.98049">
        <ele>182.31</ele>
        <time>2020-08-24T10:59:36Z</time>
      </trkpt>
      <trkpt lat="49.63436" lon="4.98038">
        <ele>187.11</ele>
        <time>2020-08-24T10:59:48Z</time>
      </trkpt>
      <trkpt lat="49.63421" lon="4.98025">
        <ele>190.48</ele>
        <time>2020-08-24T11:00:05Z</time>
      </trkpt>
      <trkpt lat="49.6341" lon="4.98008">
        <ele>187.59</ele>
        <time>2020-08-24T11:00:23Z</time>
      </trkpt>
      <trkpt lat="49.634" lon="4.97989">
        <ele>186.63</ele>
        <time>2020-08-24T11:00:40Z</time>
      </trkpt>
      <trkpt lat="49.63392" lon="4.97972">
        <ele>183.75</ele>
        <time>2020-08-24T11:00:57Z</time>
      </trkpt>
      <trkpt lat="49.63383" lon="4.97948">
        <ele>180.87</ele>
        <time>2020-08-24T11:01:15Z</time>
      </trkpt>
      <trkpt lat="49.63386" lon="4.97943">
        <ele>180.38</ele>
        <time>2020-08-24T11:01:19Z</time>
      </trkpt>
      <trkpt lat="49.63403" lon="4.97925">
        <ele>175.58</ele>
        <time>2020-08-24T11:01:36Z</time>
      </trkpt>
      <trkpt lat="49.63418" lon="4.97909">
        <ele>171.25</ele>
        <time>2020-08-24T11:01:53Z</time>
      </trkpt>
      <trkpt lat="49.63425" lon="4.97902">
        <ele>166.93</ele>
        <time>2020-08-24T11:02:10Z</time>
      </trkpt>
      <trkpt lat="49.63448" lon="4.97893">
        <ele>157.31</ele>
        <time>2020-08-24T11:02:27Z</time>
      </trkpt>
      <trkpt lat="49.63463" lon="4.9788">
        <ele>153.95</ele>
        <time>2020-08-24T11:02:44Z</time>
      </trkpt>
      <trkpt lat="49.63481" lon="4.9785">
        <ele>150.1</ele>
        <time>2020-08-24T11:03:09Z</time>
      </trkpt>
      <trkpt lat="49.63493" lon="4.97838">
        <ele>145.3</ele>
        <time>2020-08-24T11:03:25Z</time>
      </trkpt>
      <trkpt lat="49.63504" lon="4.97814">
        <ele>142.41</ele>
        <time>2020-08-24T11:03:46Z</time>
      </trkpt>
      <trkpt lat="49.63522" lon="4.97793">
        <ele>145.3</ele>
        <time>2020-08-24T11:04:07Z</time>
      </trkpt>
      <trkpt lat="49.63532" lon="4.9778">
        <ele>139.05</ele>
        <time>2020-08-24T11:04:22Z</time>
      </trkpt>
      <trkpt lat="49.63546" lon="4.97759">
        <ele>135.2</ele>
        <time>2020-08-24T11:04:40Z</time>
      </trkpt>
      <trkpt lat="49.63556" lon="4.97737">
        <ele>135.68</ele>
        <time>2020-08-24T11:04:56Z</time>
      </trkpt>
      <trkpt lat="49.63566" lon="4.97716">
        <ele>136.64</ele>
        <time>2020-08-24T11:05:13Z</time>
      </trkpt>
      <trkpt lat="49.63574" lon="4.97693">
        <ele>140.01</ele>
        <time>2020-08-24T11:05:31Z</time>
      </trkpt>
      <trkpt lat="49.63591" lon="4.97675">
        <ele>140.01</ele>
        <time>2020-08-24T11:05:50Z</time>
      </trkpt>
      <trkpt lat="49.63614" lon="4.97666">
        <ele>149.14</ele>
        <time>2020-08-24T11:06:10Z</time>
      </trkpt>
      <trkpt lat="49.63629" lon="4.97682">
        <ele>151.54</ele>
        <time>2020-08-24T11:06:30Z</time>
      </trkpt>
      <trkpt lat="49.63638" lon="4.9769">
        <ele>152.03</ele>
        <time>2020-08-24T11:06:41Z</time>
      </trkpt>
      <trkpt lat="49.63655" lon="4.97706">
        <ele>151.06</ele>
        <time>2020-08-24T11:07:02Z</time>
      </trkpt>
      <trkpt lat="49.63657" lon="4.97708">
        <ele>156.83</ele>
        <time>2020-08-24T11:07:21Z</time>
      </trkpt>
      <trkpt lat="49.63675" lon="4.9772">
        <ele>161.64</ele>
        <time>2020-08-24T11:07:40Z</time>
      </trkpt>
      <trkpt lat="49.63693" lon="4.97736">
        <ele>161.16</ele>
        <time>2020-08-24T11:08:00Z</time>
      </trkpt>
      <trkpt lat="49.63712" lon="4.97749">
        <ele>159.72</ele>
        <time>2020-08-24T11:08:19Z</time>
      </trkpt>
      <trkpt lat="49.63729" lon="4.97763">
        <ele>160.68</ele>
        <time>2020-08-24T11:08:38Z</time>
      </trkpt>
      <trkpt lat="49.63749" lon="4.97779">
        <ele>160.68</ele>
        <time>2020-08-24T11:08:58Z</time>
      </trkpt>
      <trkpt lat="49.63752" lon="4.97782">
        <ele>160.68</ele>
        <time>2020-08-24T11:09:01Z</time>
      </trkpt>
      <trkpt lat="49.6377" lon="4.97797">
        <ele>162.6</ele>
        <time>2020-08-24T11:09:21Z</time>
      </trkpt>
      <trkpt lat="49.63785" lon="4.97811">
        <ele>165</ele>
        <time>2020-08-24T11:09:41Z</time>
      </trkpt>
      <trkpt lat="49.63796" lon="4.97824">
        <ele>164.04</ele>
        <time>2020-08-24T11:09:59Z</time>
      </trkpt>
      <trkpt lat="49.63817" lon="4.97843">
        <ele>162.6</ele>
        <time>2020-08-24T11:10:19Z</time>
      </trkpt>
      <trkpt lat="49.63836" lon="4.97858">
        <ele>163.08</ele>
        <time>2020-08-24T11:10:39Z</time>
      </trkpt>
      <trkpt lat="49.63853" lon="4.97874">
        <ele>163.08</ele>
        <time>2020-08-24T11:10:59Z</time>
      </trkpt>
      <trkpt lat="49.63871" lon="4.97891">
        <ele>162.6</ele>
        <time>2020-08-24T11:11:17Z</time>
      </trkpt>
      <trkpt lat="49.63893" lon="4.97912">
        <ele>160.2</ele>
        <time>2020-08-24T11:11:36Z</time>
      </trkpt>
      <trkpt lat="49.6391" lon="4.97929">
        <ele>159.72</ele>
        <time>2020-08-24T11:11:58Z</time>
      </trkpt>
      <trkpt lat="49.63927" lon="4.97945">
        <ele>159.24</ele>
        <time>2020-08-24T11:12:19Z</time>
      </trkpt>
      <trkpt lat="49.63954" lon="4.97971">
        <ele>159.24</ele>
        <time>2020-08-24T11:12:42Z</time>
      </trkpt>
      <trkpt lat="49.63977" lon="4.97992">
        <ele>155.87</ele>
        <time>2020-08-24T11:13:06Z</time>
      </trkpt>
      <trkpt lat="49.63993" lon="4.98006">
        <ele>152.99</ele>
        <time>2020-08-24T11:13:27Z</time>
      </trkpt>
      <trkpt lat="49.64013" lon="4.98024">
        <ele>150.58</ele>
        <time>2020-08-24T11:13:51Z</time>
      </trkpt>
      <trkpt lat="49.64034" lon="4.98044">
        <ele>152.51</ele>
        <time>2020-08-24T11:14:13Z</time>
      </trkpt>
      <trkpt lat="49.6405" lon="4.98059">
        <ele>153.47</ele>
        <time>2020-08-24T11:14:34Z</time>
      </trkpt>
      <trkpt lat="49.64078" lon="4.98088">
        <ele>156.83</ele>
        <time>2020-08-24T11:14:58Z</time>
      </trkpt>
      <trkpt lat="49.64098" lon="4.98106">
        <ele>152.99</ele>
        <time>2020-08-24T11:15:24Z</time>
      </trkpt>
      <trkpt lat="49.64118" lon="4.98125">
        <ele>152.03</ele>
        <time>2020-08-24T11:15:46Z</time>
      </trkpt>
      <trkpt lat="49.64134" lon="4.98139">
        <ele>152.03</ele>
        <time>2020-08-24T11:16:07Z</time>
      </trkpt>
      <trkpt lat="49.64158" lon="4.98164">
        <ele>151.54</ele>
        <time>2020-08-24T11:16:31Z</time>
      </trkpt>
      <trkpt lat="49.6418" lon="4.98183">
        <ele>151.06</ele>
        <time>2020-08-24T11:16:54Z</time>
      </trkpt>
      <trkpt lat="49.64203" lon="4.98206">
        <ele>151.06</ele>
        <time>2020-08-24T11:17:19Z</time>
      </trkpt>
      <trkpt lat="49.64227" lon="4.98227">
        <ele>155.87</ele>
        <time>2020-08-24T11:17:42Z</time>
      </trkpt>
      <trkpt lat="49.6424" lon="4.9824">
        <ele>154.43</ele>
        <time>2020-08-24T11:18:00Z</time>
      </trkpt>
      <trkpt lat="49.6426" lon="4.98257">
        <ele>153.47</ele>
        <time>2020-08-24T11:18:22Z</time>
      </trkpt>
      <trkpt lat="49.64279" lon="4.98274">
        <ele>150.58</ele>
        <time>2020-08-24T11:18:42Z</time>
      </trkpt>
      <trkpt lat="49.64297" lon="4.98285">
        <ele>147.7</ele>
        <time>2020-08-24T11:19:04Z</time>
      </trkpt>
      <trkpt lat="49.64314" lon="4.98303">
        <ele>146.26</ele>
        <time>2020-08-24T11:19:23Z</time>
      </trkpt>
      <trkpt lat="49.64333" lon="4.98321">
        <ele>147.22</ele>
        <time>2020-08-24T11:19:46Z</time>
      </trkpt>
      <trkpt lat="49.64358" lon="4.9834">
        <ele>153.95</ele>
        <time>2020-08-24T11:20:07Z</time>
      </trkpt>
      <trkpt lat="49.64379" lon="4.98356">
        <ele>158.27</ele>
        <time>2020-08-24T11:20:28Z</time>
      </trkpt>
      <trkpt lat="49.64398" lon="4.98369">
        <ele>156.83</ele>
        <time>2020-08-24T11:20:48Z</time>
      </trkpt>
      <trkpt lat="49.64418" lon="4.98383">
        <ele>155.87</ele>
        <time>2020-08-24T11:21:09Z</time>
      </trkpt>
      <trkpt lat="49.64434" lon="4.98393">
        <ele>152.99</ele>
        <time>2020-08-24T11:21:27Z</time>
      </trkpt>
      <trkpt lat="49.64456" lon="4.98407">
        <ele>153.47</ele>
        <time>2020-08-24T11:21:48Z</time>
      </trkpt>
      <trkpt lat="49.64477" lon="4.98422">
        <ele>152.99</ele>
        <time>2020-08-24T11:22:11Z</time>
      </trkpt>
      <trkpt lat="49.645" lon="4.98436">
        <ele>157.31</ele>
        <time>2020-08-24T11:22:33Z</time>
      </trkpt>
      <trkpt lat="49.64506" lon="4.9844">
        <ele>157.31</ele>
        <time>2020-08-24T11:22:40Z</time>
      </trkpt>
      <trkpt lat="49.64533" lon="4.98455">
        <ele>158.75</ele>
        <time>2020-08-24T11:23:05Z</time>
      </trkpt>
      <trkpt lat="49.64553" lon="4.98467">
        <ele>160.2</ele>
        <time>2020-08-24T11:23:26Z</time>
      </trkpt>
      <trkpt lat="49.64575" lon="4.98478">
        <ele>159.24</ele>
        <time>2020-08-24T11:23:48Z</time>
      </trkpt>
      <trkpt lat="49.64599" lon="4.9849">
        <ele>158.75</ele>
        <time>2020-08-24T11:24:13Z</time>
      </trkpt>
      <trkpt lat="49.64622" lon="4.98502">
        <ele>156.35</ele>
        <time>2020-08-24T11:24:35Z</time>
      </trkpt>
      <trkpt lat="49.6464" lon="4.98513">
        <ele>155.87</ele>
        <time>2020-08-24T11:24:56Z</time>
      </trkpt>
      <trkpt lat="49.64661" lon="4.98524">
        <ele>155.87</ele>
        <time>2020-08-24T11:25:17Z</time>
      </trkpt>
      <trkpt lat="49.64681" lon="4.98534">
        <ele>153.47</ele>
        <time>2020-08-24T11:25:40Z</time>
      </trkpt>
      <trkpt lat="49.64701" lon="4.98545">
        <ele>152.51</ele>
        <time>2020-08-24T11:25:59Z</time>
      </trkpt>
      <trkpt lat="49.64723" lon="4.98558">
        <ele>151.54</ele>
        <time>2020-08-24T11:26:21Z</time>
      </trkpt>
      <trkpt lat="49.64749" lon="4.98572">
        <ele>152.99</ele>
        <time>2020-08-24T11:26:46Z</time>
      </trkpt>
      <trkpt lat="49.64771" lon="4.98584">
        <ele>155.87</ele>
        <time>2020-08-24T11:27:07Z</time>
      </trkpt>
      <trkpt lat="49.64797" lon="4.98597">
        <ele>156.83</ele>
        <time>2020-08-24T11:27:31Z</time>
      </trkpt>
      <trkpt lat="49.64823" lon="4.98613">
        <ele>158.75</ele>
        <time>2020-08-24T11:27:55Z</time>
      </trkpt>
      <trkpt lat="49.64846" lon="4.98628">
        <ele>157.79</ele>
        <time>2020-08-24T11:28:17Z</time>
      </trkpt>
      <trkpt lat="49.6487" lon="4.98645">
        <ele>160.2</ele>
        <time>2020-08-24T11:28:41Z</time>
      </trkpt>
      <trkpt lat="49.64889" lon="4.98659">
        <ele>161.16</ele>
        <time>2020-08-24T11:29:01Z</time>
      </trkpt>
      <trkpt lat="49.64909" lon="4.98671">
        <ele>159.72</ele>
        <time>2020-08-24T11:29:24Z</time>
      </trkpt>
      <trkpt lat="49.6493" lon="4.98682">
        <ele>159.72</ele>
        <time>2020-08-24T11:29:44Z</time>
      </trkpt>
      <trkpt lat="49.64953" lon="4.987">
        <ele>160.68</ele>
        <time>2020-08-24T11:30:07Z</time>
      </trkpt>
      <trkpt lat="49.64974" lon="4.98719">
        <ele>162.12</ele>
        <time>2020-08-24T11:30:27Z</time>
      </trkpt>
      <trkpt lat="49.6499" lon="4.98736">
        <ele>162.12</ele>
        <time>2020-08-24T11:30:45Z</time>
      </trkpt>
      <trkpt lat="49.64993" lon="4.98741">
        <ele>161.64</ele>
        <time>2020-08-24T11:30:49Z</time>
      </trkpt>
      <trkpt lat="49.64994" lon="4.98753">
        <ele>160.68</ele>
        <time>2020-08-24T11:30:56Z</time>
      </trkpt>
      <trkpt lat="49.64983" lon="4.98783">
        <ele>156.83</ele>
        <time>2020-08-24T11:31:16Z</time>
      </trkpt>
      <trkpt lat="49.64977" lon="4.98802">
        <ele>153.47</ele>
        <time>2020-08-24T11:31:32Z</time>
      </trkpt>
      <trkpt lat="49.64967" lon="4.98834">
        <ele>153.95</ele>
        <time>2020-08-24T11:31:53Z</time>
      </trkpt>
      <trkpt lat="49.64962" lon="4.98855">
        <ele>158.27</ele>
        <time>2020-08-24T11:32:04Z</time>
      </trkpt>
      <trkpt lat="49.6496" lon="4.98888">
        <ele>162.12</ele>
        <time>2020-08-24T11:32:22Z</time>
      </trkpt>
      <trkpt lat="49.6496" lon="4.98916">
        <ele>164.52</ele>
        <time>2020-08-24T11:32:39Z</time>
      </trkpt>
      <trkpt lat="49.64956" lon="4.98942">
        <ele>165.48</ele>
        <time>2020-08-24T11:32:56Z</time>
      </trkpt>
      <trkpt lat="49.64953" lon="4.98957">
        <ele>164.52</ele>
        <time>2020-08-24T11:33:06Z</time>
      </trkpt>
      <trkpt lat="49.64941" lon="4.98982">
        <ele>163.56</ele>
        <time>2020-08-24T11:33:24Z</time>
      </trkpt>
      <trkpt lat="49.64932" lon="4.99006">
        <ele>162.6</ele>
        <time>2020-08-24T11:33:42Z</time>
      </trkpt>
      <trkpt lat="49.64929" lon="4.99017">
        <ele>163.08</ele>
        <time>2020-08-24T11:33:59Z</time>
      </trkpt>
      <trkpt lat="49.64936" lon="4.99038">
        <ele>163.08</ele>
        <time>2020-08-24T11:34:15Z</time>
      </trkpt>
      <trkpt lat="49.64951" lon="4.99062">
        <ele>161.64</ele>
        <time>2020-08-24T11:34:34Z</time>
      </trkpt>
      <trkpt lat="49.64964" lon="4.99092">
        <ele>163.08</ele>
        <time>2020-08-24T11:34:54Z</time>
      </trkpt>
      <trkpt lat="49.64965" lon="4.99096">
        <ele>163.56</ele>
        <time>2020-08-24T11:34:56Z</time>
      </trkpt>
      <trkpt lat="49.64965" lon="4.99118">
        <ele>165.48</ele>
        <time>2020-08-24T11:35:12Z</time>
      </trkpt>
      <trkpt lat="49.64952" lon="4.99126">
        <ele>165.48</ele>
        <time>2020-08-24T11:35:26Z</time>
      </trkpt>
      <trkpt lat="49.64936" lon="4.99148">
        <ele>163.08</ele>
        <time>2020-08-24T11:35:46Z</time>
      </trkpt>
      <trkpt lat="49.64931" lon="4.99154">
        <ele>162.12</ele>
        <time>2020-08-24T11:35:52Z</time>
      </trkpt>
      <trkpt lat="49.64911" lon="4.99182">
        <ele>164.52</ele>
        <time>2020-08-24T11:36:14Z</time>
      </trkpt>
      <trkpt lat="49.64901" lon="4.99201">
        <ele>166.93</ele>
        <time>2020-08-24T11:36:30Z</time>
      </trkpt>
      <trkpt lat="49.64882" lon="4.99192">
        <ele>171.25</ele>
        <time>2020-08-24T11:36:49Z</time>
      </trkpt>
      <trkpt lat="49.64871" lon="4.99175">
        <ele>169.81</ele>
        <time>2020-08-24T11:37:07Z</time>
      </trkpt>
      <trkpt lat="49.64857" lon="4.99168">
        <ele>175.58</ele>
        <time>2020-08-24T11:37:18Z</time>
      </trkpt>
      <trkpt lat="49.64848" lon="4.99171">
        <ele>177.02</ele>
        <time>2020-08-24T11:37:28Z</time>
      </trkpt>
      <trkpt lat="49.6483" lon="4.99158">
        <ele>176.06</ele>
        <time>2020-08-24T11:37:46Z</time>
      </trkpt>
      <trkpt lat="49.64821" lon="4.99155">
        <ele>176.06</ele>
        <time>2020-08-24T11:37:55Z</time>
      </trkpt>
      <trkpt lat="49.64804" lon="4.99177">
        <ele>177.02</ele>
        <time>2020-08-24T11:38:14Z</time>
      </trkpt>
      <trkpt lat="49.64788" lon="4.99199">
        <ele>179.42</ele>
        <time>2020-08-24T11:38:32Z</time>
      </trkpt>
      <trkpt lat="49.64776" lon="4.99219">
        <ele>182.31</ele>
        <time>2020-08-24T11:38:48Z</time>
      </trkpt>
      <trkpt lat="49.64761" lon="4.9924">
        <ele>184.23</ele>
        <time>2020-08-24T11:39:06Z</time>
      </trkpt>
      <trkpt lat="49.6475" lon="4.99258">
        <ele>185.67</ele>
        <time>2020-08-24T11:39:21Z</time>
      </trkpt>
      <trkpt lat="49.64735" lon="4.99277">
        <ele>189.52</ele>
        <time>2020-08-24T11:39:39Z</time>
      </trkpt>
      <trkpt lat="49.6472" lon="4.99297">
        <ele>191.92</ele>
        <time>2020-08-24T11:39:57Z</time>
      </trkpt>
      <trkpt lat="49.64705" lon="4.99316">
        <ele>194.8</ele>
        <time>2020-08-24T11:40:16Z</time>
      </trkpt>
      <trkpt lat="49.64704" lon="4.99318">
        <ele>196.25</ele>
        <time>2020-08-24T11:40:33Z</time>
      </trkpt>
      <trkpt lat="49.64698" lon="4.99327">
        <ele>197.21</ele>
        <time>2020-08-24T11:40:54Z</time>
      </trkpt>
      <trkpt lat="49.64682" lon="4.99346">
        <ele>199.13</ele>
        <time>2020-08-24T11:41:11Z</time>
      </trkpt>
      <trkpt lat="49.64664" lon="4.99364">
        <ele>196.25</ele>
        <time>2020-08-24T11:41:30Z</time>
      </trkpt>
      <trkpt lat="49.64647" lon="4.99382">
        <ele>196.25</ele>
        <time>2020-08-24T11:41:50Z</time>
      </trkpt>
      <trkpt lat="49.64631" lon="4.99398">
        <ele>197.21</ele>
        <time>2020-08-24T11:42:07Z</time>
      </trkpt>
      <trkpt lat="49.64616" lon="4.99415">
        <ele>197.21</ele>
        <time>2020-08-24T11:42:25Z</time>
      </trkpt>
      <trkpt lat="49.646" lon="4.99431">
        <ele>197.21</ele>
        <time>2020-08-24T11:42:43Z</time>
      </trkpt>
      <trkpt lat="49.64581" lon="4.99454">
        <ele>198.65</ele>
        <time>2020-08-24T11:43:05Z</time>
      </trkpt>
      <trkpt lat="49.64571" lon="4.99467">
        <ele>199.13</ele>
        <time>2020-08-24T11:43:19Z</time>
      </trkpt>
      <trkpt lat="49.64557" lon="4.99484">
        <ele>199.13</ele>
        <time>2020-08-24T11:43:35Z</time>
      </trkpt>
      <trkpt lat="49.64539" lon="4.99502">
        <ele>200.57</ele>
        <time>2020-08-24T11:43:54Z</time>
      </trkpt>
      <trkpt lat="49.64522" lon="4.99519">
        <ele>201.53</ele>
        <time>2020-08-24T11:44:14Z</time>
      </trkpt>
      <trkpt lat="49.64506" lon="4.99539">
        <ele>203.46</ele>
        <time>2020-08-24T11:44:34Z</time>
      </trkpt>
      <trkpt lat="49.64491" lon="4.99558">
        <ele>204.9</ele>
        <time>2020-08-24T11:44:52Z</time>
      </trkpt>
      <trkpt lat="49.64478" lon="4.9958">
        <ele>207.78</ele>
        <time>2020-08-24T11:45:10Z</time>
      </trkpt>
      <trkpt lat="49.64461" lon="4.99597">
        <ele>210.19</ele>
        <time>2020-08-24T11:45:29Z</time>
      </trkpt>
      <trkpt lat="49.64442" lon="4.99605">
        <ele>212.11</ele>
        <time>2020-08-24T11:45:46Z</time>
      </trkpt>
      <trkpt lat="49.64419" lon="4.99608">
        <ele>214.99</ele>
        <time>2020-08-24T11:46:07Z</time>
      </trkpt>
      <trkpt lat="49.64399" lon="4.99606">
        <ele>214.51</ele>
        <time>2020-08-24T11:46:27Z</time>
      </trkpt>
      <trkpt lat="49.64379" lon="4.99606">
        <ele>215.47</ele>
        <time>2020-08-24T11:46:47Z</time>
      </trkpt>
      <trkpt lat="49.64361" lon="4.99603">
        <ele>217.4</ele>
        <time>2020-08-24T11:47:05Z</time>
      </trkpt>
      <trkpt lat="49.64346" lon="4.99602">
        <ele>218.36</ele>
        <time>2020-08-24T11:47:20Z</time>
      </trkpt>
      <trkpt lat="49.64323" lon="4.99602">
        <ele>221.24</ele>
        <time>2020-08-24T11:47:41Z</time>
      </trkpt>
      <trkpt lat="49.64307" lon="4.99599">
        <ele>222.2</ele>
        <time>2020-08-24T11:47:55Z</time>
      </trkpt>
      <trkpt lat="49.64286" lon="4.99597">
        <ele>223.16</ele>
        <time>2020-08-24T11:48:15Z</time>
      </trkpt>
      <trkpt lat="49.64268" lon="4.99593">
        <ele>224.61</ele>
        <time>2020-08-24T11:48:32Z</time>
      </trkpt>
      <trkpt lat="49.64261" lon="4.99592">
        <ele>225.57</ele>
        <time>2020-08-24T11:48:47Z</time>
      </trkpt>
      <trkpt lat="49.6424" lon="4.99582">
        <ele>224.61</ele>
        <time>2020-08-24T11:49:07Z</time>
      </trkpt>
      <trkpt lat="49.64223" lon="4.99573">
        <ele>224.12</ele>
        <time>2020-08-24T11:49:25Z</time>
      </trkpt>
      <trkpt lat="49.6421" lon="4.99563">
        <ele>224.61</ele>
        <time>2020-08-24T11:49:37Z</time>
      </trkpt>
      <trkpt lat="49.6419" lon="4.99548">
        <ele>225.09</ele>
        <time>2020-08-24T11:49:57Z</time>
      </trkpt>
      <trkpt lat="49.6417" lon="4.99533">
        <ele>224.61</ele>
        <time>2020-08-24T11:50:17Z</time>
      </trkpt>
      <trkpt lat="49.64153" lon="4.99521">
        <ele>225.57</ele>
        <time>2020-08-24T11:50:34Z</time>
      </trkpt>
      <trkpt lat="49.64132" lon="4.9951">
        <ele>226.05</ele>
        <time>2020-08-24T11:50:54Z</time>
      </trkpt>
      <trkpt lat="49.64129" lon="4.99509">
        <ele>226.05</ele>
        <time>2020-08-24T11:50:56Z</time>
      </trkpt>
      <trkpt lat="49.64106" lon="4.99503">
        <ele>227.97</ele>
        <time>2020-08-24T11:51:17Z</time>
      </trkpt>
      <trkpt lat="49.64095" lon="4.99498">
        <ele>227.49</ele>
        <time>2020-08-24T11:51:28Z</time>
      </trkpt>
      <trkpt lat="49.6409" lon="4.99495">
        <ele>227.49</ele>
        <time>2020-08-24T11:51:32Z</time>
      </trkpt>
      <trkpt lat="49.64068" lon="4.99488">
        <ele>229.41</ele>
        <time>2020-08-24T11:51:53Z</time>
      </trkpt>
      <trkpt lat="49.64045" lon="4.99481">
        <ele>229.89</ele>
        <time>2020-08-24T11:52:13Z</time>
      </trkpt>
      <trkpt lat="49.64027" lon="4.99474">
        <ele>229.89</ele>
        <time>2020-08-24T11:52:30Z</time>
      </trkpt>
      <trkpt lat="49.64008" lon="4.99466">
        <ele>228.45</ele>
        <time>2020-08-24T11:52:49Z</time>
      </trkpt>
      <trkpt lat="49.63988" lon="4.99459">
        <ele>226.05</ele>
        <time>2020-08-24T11:53:09Z</time>
      </trkpt>
      <trkpt lat="49.6398" lon="4.99457">
        <ele>225.09</ele>
        <time>2020-08-24T11:53:17Z</time>
      </trkpt>
      <trkpt lat="49.63964" lon="4.99459">
        <ele>224.12</ele>
        <time>2020-08-24T11:53:34Z</time>
      </trkpt>
      <trkpt lat="49.63937" lon="4.99476">
        <ele>231.81</ele>
        <time>2020-08-24T11:53:54Z</time>
      </trkpt>
      <trkpt lat="49.63923" lon="4.99481">
        <ele>232.78</ele>
        <time>2020-08-24T11:54:11Z</time>
      </trkpt>
      <trkpt lat="49.63907" lon="4.99485">
        <ele>233.26</ele>
        <time>2020-08-24T11:54:28Z</time>
      </trkpt>
      <trkpt lat="49.63893" lon="4.9949">
        <ele>233.74</ele>
        <time>2020-08-24T11:54:43Z</time>
      </trkpt>
      <trkpt lat="49.63874" lon="4.99504">
        <ele>240.47</ele>
        <time>2020-08-24T11:55:01Z</time>
      </trkpt>
      <trkpt lat="49.63858" lon="4.99511">
        <ele>242.87</ele>
        <time>2020-08-24T11:55:18Z</time>
      </trkpt>
      <trkpt lat="49.63842" lon="4.99518">
        <ele>242.39</ele>
        <time>2020-08-24T11:55:35Z</time>
      </trkpt>
      <trkpt lat="49.63829" lon="4.99527">
        <ele>243.35</ele>
        <time>2020-08-24T11:55:53Z</time>
      </trkpt>
      <trkpt lat="49.63816" lon="4.99532">
        <ele>242.39</ele>
        <time>2020-08-24T11:56:10Z</time>
      </trkpt>
      <trkpt lat="49.63796" lon="4.9954">
        <ele>252.48</ele>
        <time>2020-08-24T11:56:27Z</time>
      </trkpt>
      <trkpt lat="49.63779" lon="4.9954">
        <ele>254.89</ele>
        <time>2020-08-24T11:56:46Z</time>
      </trkpt>
      <trkpt lat="49.63762" lon="4.99534">
        <ele>256.81</ele>
        <time>2020-08-24T11:57:04Z</time>
      </trkpt>
      <trkpt lat="49.63759" lon="4.99531">
        <ele>257.29</ele>
        <time>2020-08-24T11:57:07Z</time>
      </trkpt>
      <trkpt lat="49.63755" lon="4.99529">
        <ele>258.25</ele>
        <time>2020-08-24T11:57:11Z</time>
      </trkpt>
      <trkpt lat="49.63736" lon="4.99517">
        <ele>261.14</ele>
        <time>2020-08-24T11:57:31Z</time>
      </trkpt>
      <trkpt lat="49.6372" lon="4.99503">
        <ele>262.58</ele>
        <time>2020-08-24T11:57:48Z</time>
      </trkpt>
      <trkpt lat="49.63703" lon="4.99492">
        <ele>263.54</ele>
        <time>2020-08-24T11:58:06Z</time>
      </trkpt>
      <trkpt lat="49.63694" lon="4.99488">
        <ele>264.5</ele>
        <time>2020-08-24T11:58:25Z</time>
      </trkpt>
      <trkpt lat="49.63675" lon="4.99482">
        <ele>265.94</ele>
        <time>2020-08-24T11:58:44Z</time>
      </trkpt>
      <trkpt lat="49.63653" lon="4.99476">
        <ele>269.31</ele>
        <time>2020-08-24T11:59:03Z</time>
      </trkpt>
      <trkpt lat="49.63633" lon="4.99471">
        <ele>274.59</ele>
        <time>2020-08-24T11:59:23Z</time>
      </trkpt>
      <trkpt lat="49.63611" lon="4.99465">
        <ele>278.44</ele>
        <time>2020-08-24T11:59:45Z</time>
      </trkpt>
      <trkpt lat="49.63589" lon="4.99459">
        <ele>283.25</ele>
        <time>2020-08-24T12:00:06Z</time>
      </trkpt>
      <trkpt lat="49.63568" lon="4.9945">
        <ele>286.61</ele>
        <time>2020-08-24T12:00:27Z</time>
      </trkpt>
      <trkpt lat="49.63549" lon="4.99443">
        <ele>282.28</ele>
        <time>2020-08-24T12:00:48Z</time>
      </trkpt>
      <trkpt lat="49.63534" lon="4.99437">
        <ele>279.4</ele>
        <time>2020-08-24T12:01:04Z</time>
      </trkpt>
      <trkpt lat="49.63522" lon="4.99424">
        <ele>276.52</ele>
        <time>2020-08-24T12:01:20Z</time>
      </trkpt>
      <trkpt lat="49.63506" lon="4.99412">
        <ele>276.04</ele>
        <time>2020-08-24T12:01:39Z</time>
      </trkpt>
      <trkpt lat="49.63482" lon="4.99401">
        <ele>279.4</ele>
        <time>2020-08-24T12:02:00Z</time>
      </trkpt>
      <trkpt lat="49.6346" lon="4.99395">
        <ele>280.36</ele>
        <time>2020-08-24T12:02:21Z</time>
      </trkpt>
      <trkpt lat="49.63444" lon="4.99394">
        <ele>279.88</ele>
        <time>2020-08-24T12:02:38Z</time>
      </trkpt>
      <trkpt lat="49.63429" lon="4.99394">
        <ele>280.36</ele>
        <time>2020-08-24T12:02:54Z</time>
      </trkpt>
      <trkpt lat="49.63407" lon="4.99394">
        <ele>283.25</ele>
        <time>2020-08-24T12:03:13Z</time>
      </trkpt>
      <trkpt lat="49.6339" lon="4.9939">
        <ele>282.77</ele>
        <time>2020-08-24T12:03:29Z</time>
      </trkpt>
      <trkpt lat="49.63372" lon="4.99393">
        <ele>284.69</ele>
        <time>2020-08-24T12:03:44Z</time>
      </trkpt>
      <trkpt lat="49.63351" lon="4.99391">
        <ele>285.17</ele>
        <time>2020-08-24T12:04:01Z</time>
      </trkpt>
      <trkpt lat="49.63328" lon="4.99391">
        <ele>287.57</ele>
        <time>2020-08-24T12:04:21Z</time>
      </trkpt>
      <trkpt lat="49.6331" lon="4.99392">
        <ele>286.13</ele>
        <time>2020-08-24T12:04:39Z</time>
      </trkpt>
      <trkpt lat="49.63292" lon="4.99393">
        <ele>287.57</ele>
        <time>2020-08-24T12:04:56Z</time>
      </trkpt>
      <trkpt lat="49.63275" lon="4.99397">
        <ele>287.57</ele>
        <time>2020-08-24T12:05:13Z</time>
      </trkpt>
      <trkpt lat="49.63258" lon="4.99403">
        <ele>285.65</ele>
        <time>2020-08-24T12:05:30Z</time>
      </trkpt>
      <trkpt lat="49.6324" lon="4.9941">
        <ele>285.65</ele>
        <time>2020-08-24T12:05:48Z</time>
      </trkpt>
      <trkpt lat="49.63225" lon="4.99422">
        <ele>285.65</ele>
        <time>2020-08-24T12:06:06Z</time>
      </trkpt>
      <trkpt lat="49.63211" lon="4.99433">
        <ele>284.69</ele>
        <time>2020-08-24T12:06:25Z</time>
      </trkpt>
      <trkpt lat="49.63192" lon="4.9945">
        <ele>282.28</ele>
        <time>2020-08-24T12:06:45Z</time>
      </trkpt>
      <trkpt lat="49.63177" lon="4.99468">
        <ele>279.88</ele>
        <time>2020-08-24T12:07:05Z</time>
      </trkpt>
      <trkpt lat="49.6316" lon="4.99486">
        <ele>277.96</ele>
        <time>2020-08-24T12:07:24Z</time>
      </trkpt>
      <trkpt lat="49.63146" lon="4.99509">
        <ele>278.92</ele>
        <time>2020-08-24T12:07:42Z</time>
      </trkpt>
      <trkpt lat="49.63135" lon="4.99525">
        <ele>284.69</ele>
        <time>2020-08-24T12:08:00Z</time>
      </trkpt>
      <trkpt lat="49.6313" lon="4.99531">
        <ele>297.67</ele>
        <time>2020-08-24T12:08:18Z</time>
      </trkpt>
      <trkpt lat="49.63119" lon="4.99554">
        <ele>297.18</ele>
        <time>2020-08-24T12:08:38Z</time>
      </trkpt>
      <trkpt lat="49.63107" lon="4.99575">
        <ele>292.38</ele>
        <time>2020-08-24T12:08:58Z</time>
      </trkpt>
      <trkpt lat="49.63095" lon="4.99599">
        <ele>284.69</ele>
        <time>2020-08-24T12:09:18Z</time>
      </trkpt>
      <trkpt lat="49.63083" lon="4.99624">
        <ele>278.92</ele>
        <time>2020-08-24T12:09:39Z</time>
      </trkpt>
      <trkpt lat="49.63073" lon="4.99641">
        <ele>277</ele>
        <time>2020-08-24T12:09:57Z</time>
      </trkpt>
      <trkpt lat="49.63063" lon="4.99661">
        <ele>275.07</ele>
        <time>2020-08-24T12:10:15Z</time>
      </trkpt>
      <trkpt lat="49.63048" lon="4.99683">
        <ele>279.88</ele>
        <time>2020-08-24T12:10:34Z</time>
      </trkpt>
      <trkpt lat="49.63023" lon="4.99719">
        <ele>286.61</ele>
        <time>2020-08-24T12:10:57Z</time>
      </trkpt>
      <trkpt lat="49.6301" lon="4.99729">
        <ele>289.01</ele>
        <time>2020-08-24T12:11:15Z</time>
      </trkpt>
      <trkpt lat="49.62993" lon="4.99755">
        <ele>290.94</ele>
        <time>2020-08-24T12:11:35Z</time>
      </trkpt>
      <trkpt lat="49.62982" lon="4.99767">
        <ele>289.49</ele>
        <time>2020-08-24T12:11:54Z</time>
      </trkpt>
      <trkpt lat="49.62967" lon="4.99781">
        <ele>288.05</ele>
        <time>2020-08-24T12:12:17Z</time>
      </trkpt>
      <trkpt lat="49.6295" lon="4.99801">
        <ele>285.17</ele>
        <time>2020-08-24T12:12:35Z</time>
      </trkpt>
      <trkpt lat="49.62922" lon="4.99823">
        <ele>287.57</ele>
        <time>2020-08-24T12:12:54Z</time>
      </trkpt>
      <trkpt lat="49.62904" lon="4.99841">
        <ele>287.57</ele>
        <time>2020-08-24T12:13:16Z</time>
      </trkpt>
      <trkpt lat="49.62885" lon="4.99859">
        <ele>289.49</ele>
        <time>2020-08-24T12:13:36Z</time>
      </trkpt>
      <trkpt lat="49.62872" lon="4.99871">
        <ele>288.05</ele>
        <time>2020-08-24T12:13:55Z</time>
      </trkpt>
      <trkpt lat="49.62856" lon="4.99886">
        <ele>289.01</ele>
        <time>2020-08-24T12:14:15Z</time>
      </trkpt>
      <trkpt lat="49.62837" lon="4.99906">
        <ele>284.69</ele>
        <time>2020-08-24T12:14:34Z</time>
      </trkpt>
      <trkpt lat="49.6282" lon="4.99921">
        <ele>281.8</ele>
        <time>2020-08-24T12:14:53Z</time>
      </trkpt>
      <trkpt lat="49.62797" lon="4.99935">
        <ele>282.77</ele>
        <time>2020-08-24T12:15:15Z</time>
      </trkpt>
      <trkpt lat="49.62782" lon="4.99945">
        <ele>281.8</ele>
        <time>2020-08-24T12:15:33Z</time>
      </trkpt>
      <trkpt lat="49.62767" lon="4.99955">
        <ele>280.36</ele>
        <time>2020-08-24T12:15:53Z</time>
      </trkpt>
      <trkpt lat="49.62756" lon="4.99963">
        <ele>279.88</ele>
        <time>2020-08-24T12:16:10Z</time>
      </trkpt>
      <trkpt lat="49.62738" lon="4.99977">
        <ele>277.96</ele>
        <time>2020-08-24T12:16:29Z</time>
      </trkpt>
      <trkpt lat="49.62715" lon="4.99983">
        <ele>275.07</ele>
        <time>2020-08-24T12:16:48Z</time>
      </trkpt>
      <trkpt lat="49.62697" lon="4.99994">
        <ele>271.23</ele>
        <time>2020-08-24T12:17:07Z</time>
      </trkpt>
      <trkpt lat="49.62679" lon="5.00005">
        <ele>269.31</ele>
        <time>2020-08-24T12:17:28Z</time>
      </trkpt>
      <trkpt lat="49.62674" lon="5.00031">
        <ele>266.9</ele>
        <time>2020-08-24T12:17:48Z</time>
      </trkpt>
      <trkpt lat="49.62664" lon="5.00063">
        <ele>260.65</ele>
        <time>2020-08-24T12:18:08Z</time>
      </trkpt>
      <trkpt lat="49.62663" lon="5.00078">
        <ele>259.21</ele>
        <time>2020-08-24T12:18:28Z</time>
      </trkpt>
      <trkpt lat="49.62672" lon="5.00086">
        <ele>256.33</ele>
        <time>2020-08-24T12:18:44Z</time>
      </trkpt>
      <trkpt lat="49.62684" lon="5.00115">
        <ele>254.41</ele>
        <time>2020-08-24T12:19:04Z</time>
      </trkpt>
      <trkpt lat="49.62697" lon="5.00139">
        <ele>252.48</ele>
        <time>2020-08-24T12:19:25Z</time>
      </trkpt>
      <trkpt lat="49.62707" lon="5.00154">
        <ele>249.12</ele>
        <time>2020-08-24T12:19:41Z</time>
      </trkpt>
      <trkpt lat="49.62715" lon="5.00168">
        <ele>246.72</ele>
        <time>2020-08-24T12:19:53Z</time>
      </trkpt>
      <trkpt lat="49.62727" lon="5.00186">
        <ele>243.83</ele>
        <time>2020-08-24T12:20:11Z</time>
      </trkpt>
      <trkpt lat="49.62739" lon="5.00205">
        <ele>241.43</ele>
        <time>2020-08-24T12:20:32Z</time>
      </trkpt>
      <trkpt lat="49.62755" lon="5.00229">
        <ele>242.39</ele>
        <time>2020-08-24T12:20:51Z</time>
      </trkpt>
      <trkpt lat="49.62767" lon="5.00247">
        <ele>244.31</ele>
        <time>2020-08-24T12:21:08Z</time>
      </trkpt>
      <trkpt lat="49.62771" lon="5.00256">
        <ele>245.27</ele>
        <time>2020-08-24T12:21:23Z</time>
      </trkpt>
      <trkpt lat="49.6279" lon="5.00278">
        <ele>246.23</ele>
        <time>2020-08-24T12:21:41Z</time>
      </trkpt>
      <trkpt lat="49.62802" lon="5.00301">
        <ele>252.96</ele>
        <time>2020-08-24T12:22:00Z</time>
      </trkpt>
      <trkpt lat="49.62807" lon="5.00308">
        <ele>253.93</ele>
        <time>2020-08-24T12:22:20Z</time>
      </trkpt>
      <trkpt lat="49.62809" lon="5.00314">
        <ele>252.96</ele>
        <time>2020-08-24T12:22:40Z</time>
      </trkpt>
      <trkpt lat="49.62813" lon="5.00323">
        <ele>253.44</ele>
        <time>2020-08-24T12:23:00Z</time>
      </trkpt>
      <trkpt lat="49.62827" lon="5.00343">
        <ele>251.04</ele>
        <time>2020-08-24T12:23:21Z</time>
      </trkpt>
      <trkpt lat="49.62843" lon="5.00363">
        <ele>248.16</ele>
        <time>2020-08-24T12:23:38Z</time>
      </trkpt>
      <trkpt lat="49.62867" lon="5.00396">
        <ele>240.95</ele>
        <time>2020-08-24T12:23:58Z</time>
      </trkpt>
      <trkpt lat="49.62877" lon="5.00413">
        <ele>239.99</ele>
        <time>2020-08-24T12:24:14Z</time>
      </trkpt>
      <trkpt lat="49.62887" lon="5.00426">
        <ele>239.02</ele>
        <time>2020-08-24T12:24:32Z</time>
      </trkpt>
      <trkpt lat="49.6292" lon="5.00485">
        <ele>235.66</ele>
        <time>2020-08-24T12:24:53Z</time>
      </trkpt>
      <trkpt lat="49.62935" lon="5.00521">
        <ele>246.23</ele>
        <time>2020-08-24T12:25:10Z</time>
      </trkpt>
      <trkpt lat="49.6295" lon="5.00537">
        <ele>245.27</ele>
        <time>2020-08-24T12:25:28Z</time>
      </trkpt>
      <trkpt lat="49.62957" lon="5.0055">
        <ele>245.27</ele>
        <time>2020-08-24T12:25:42Z</time>
      </trkpt>
      <trkpt lat="49.62954" lon="5.00562">
        <ele>250.56</ele>
        <time>2020-08-24T12:25:53Z</time>
      </trkpt>
      <trkpt lat="49.62971" lon="5.00577">
        <ele>252.96</ele>
        <time>2020-08-24T12:26:10Z</time>
      </trkpt>
      <trkpt lat="49.62987" lon="5.0059">
        <ele>256.33</ele>
        <time>2020-08-24T12:26:28Z</time>
      </trkpt>
      <trkpt lat="49.63001" lon="5.00605">
        <ele>256.81</ele>
        <time>2020-08-24T12:26:46Z</time>
      </trkpt>
      <trkpt lat="49.63017" lon="5.00621">
        <ele>257.77</ele>
        <time>2020-08-24T12:27:07Z</time>
      </trkpt>
      <trkpt lat="49.63031" lon="5.0064">
        <ele>256.81</ele>
        <time>2020-08-24T12:27:24Z</time>
      </trkpt>
      <trkpt lat="49.6304" lon="5.00657">
        <ele>256.81</ele>
        <time>2020-08-24T12:27:39Z</time>
      </trkpt>
      <trkpt lat="49.63047" lon="5.0068">
        <ele>257.29</ele>
        <time>2020-08-24T12:27:56Z</time>
      </trkpt>
      <trkpt lat="49.63053" lon="5.00693">
        <ele>261.62</ele>
        <time>2020-08-24T12:28:43Z</time>
      </trkpt>
      <trkpt lat="49.63054" lon="5.00693">
        <ele>264.98</ele>
        <time>2020-08-24T12:29:18Z</time>
      </trkpt>
      <trkpt lat="49.63054" lon="5.00694">
        <ele>265.46</ele>
        <time>2020-08-24T12:29:42Z</time>
      </trkpt>
      <trkpt lat="49.63052" lon="5.00694">
        <ele>264.98</ele>
        <time>2020-08-24T12:30:10Z</time>
      </trkpt>
      <trkpt lat="49.63052" lon="5.00693">
        <ele>263.54</ele>
        <time>2020-08-24T12:30:32Z</time>
      </trkpt>
      <trkpt lat="49.63051" lon="5.00694">
        <ele>264.02</ele>
        <time>2020-08-24T12:30:58Z</time>
      </trkpt>
      <trkpt lat="49.63051" lon="5.00693">
        <ele>263.06</ele>
        <time>2020-08-24T12:31:25Z</time>
      </trkpt>
      <trkpt lat="49.63052" lon="5.00693">
        <ele>262.58</ele>
        <time>2020-08-24T12:31:55Z</time>
      </trkpt>
      <trkpt lat="49.63052" lon="5.00692">
        <ele>261.14</ele>
        <time>2020-08-24T12:32:32Z</time>
      </trkpt>
      <trkpt lat="49.63052" lon="5.0069">
        <ele>261.14</ele>
        <time>2020-08-24T12:32:57Z</time>
      </trkpt>
      <trkpt lat="49.63052" lon="5.0069">
        <ele>260.17</ele>
        <time>2020-08-24T12:33:21Z</time>
      </trkpt>
      <trkpt lat="49.63051" lon="5.00692">
        <ele>259.21</ele>
        <time>2020-08-24T12:33:51Z</time>
      </trkpt>
      <trkpt lat="49.63051" lon="5.00692">
        <ele>259.69</ele>
        <time>2020-08-24T12:34:10Z</time>
      </trkpt>
      <trkpt lat="49.63051" lon="5.00692">
        <ele>259.21</ele>
        <time>2020-08-24T12:34:33Z</time>
      </trkpt>
      <trkpt lat="49.63052" lon="5.00691">
        <ele>259.69</ele>
        <time>2020-08-24T12:34:58Z</time>
      </trkpt>
      <trkpt lat="49.63052" lon="5.00691">
        <ele>259.69</ele>
        <time>2020-08-24T12:35:13Z</time>
      </trkpt>
      <trkpt lat="49.63053" lon="5.00695">
        <ele>259.21</ele>
        <time>2020-08-24T12:35:28Z</time>
      </trkpt>
      <trkpt lat="49.63062" lon="5.00709">
        <ele>254.41</ele>
        <time>2020-08-24T12:35:44Z</time>
      </trkpt>
      <trkpt lat="49.63075" lon="5.00737">
        <ele>252</ele>
        <time>2020-08-24T12:36:02Z</time>
      </trkpt>
      <trkpt lat="49.6308" lon="5.00753">
        <ele>250.56</ele>
        <time>2020-08-24T12:36:19Z</time>
      </trkpt>
      <trkpt lat="49.63082" lon="5.00763">
        <ele>248.64</ele>
        <time>2020-08-24T12:36:38Z</time>
      </trkpt>
      <trkpt lat="49.63085" lon="5.00772">
        <ele>246.72</ele>
        <time>2020-08-24T12:36:55Z</time>
      </trkpt>
      <trkpt lat="49.63088" lon="5.00781">
        <ele>242.39</ele>
        <time>2020-08-24T12:37:14Z</time>
      </trkpt>
      <trkpt lat="49.63101" lon="5.00801">
        <ele>236.62</ele>
        <time>2020-08-24T12:37:32Z</time>
      </trkpt>
      <trkpt lat="49.63107" lon="5.00813">
        <ele>232.78</ele>
        <time>2020-08-24T12:37:50Z</time>
      </trkpt>
      <trkpt lat="49.63113" lon="5.00826">
        <ele>229.89</ele>
        <time>2020-08-24T12:38:11Z</time>
      </trkpt>
      <trkpt lat="49.63129" lon="5.00864">
        <ele>222.68</ele>
        <time>2020-08-24T12:38:29Z</time>
      </trkpt>
      <trkpt lat="49.63139" lon="5.00891">
        <ele>224.12</ele>
        <time>2020-08-24T12:38:42Z</time>
      </trkpt>
      <trkpt lat="49.63154" lon="5.00937">
        <ele>233.26</ele>
        <time>2020-08-24T12:39:03Z</time>
      </trkpt>
      <trkpt lat="49.63167" lon="5.00957">
        <ele>235.18</ele>
        <time>2020-08-24T12:39:20Z</time>
      </trkpt>
      <trkpt lat="49.63182" lon="5.00976">
        <ele>234.22</ele>
        <time>2020-08-24T12:39:40Z</time>
      </trkpt>
      <trkpt lat="49.63195" lon="5.00987">
        <ele>234.22</ele>
        <time>2020-08-24T12:39:57Z</time>
      </trkpt>
      <trkpt lat="49.6321" lon="5.00998">
        <ele>232.78</ele>
        <time>2020-08-24T12:40:15Z</time>
      </trkpt>
      <trkpt lat="49.63227" lon="5.0101">
        <ele>231.81</ele>
        <time>2020-08-24T12:40:35Z</time>
      </trkpt>
      <trkpt lat="49.63243" lon="5.01018">
        <ele>229.89</ele>
        <time>2020-08-24T12:40:53Z</time>
      </trkpt>
      <trkpt lat="49.63261" lon="5.01025">
        <ele>227.97</ele>
        <time>2020-08-24T12:41:12Z</time>
      </trkpt>
      <trkpt lat="49.63278" lon="5.01033">
        <ele>225.09</ele>
        <time>2020-08-24T12:41:34Z</time>
      </trkpt>
      <trkpt lat="49.6328" lon="5.01034">
        <ele>224.61</ele>
        <time>2020-08-24T12:41:36Z</time>
      </trkpt>
      <trkpt lat="49.63298" lon="5.01043">
        <ele>221.72</ele>
        <time>2020-08-24T12:41:55Z</time>
      </trkpt>
      <trkpt lat="49.63316" lon="5.01052">
        <ele>220.28</ele>
        <time>2020-08-24T12:42:14Z</time>
      </trkpt>
      <trkpt lat="49.63322" lon="5.01055">
        <ele>220.76</ele>
        <time>2020-08-24T12:42:27Z</time>
      </trkpt>
      <trkpt lat="49.63332" lon="5.01061">
        <ele>219.8</ele>
        <time>2020-08-24T12:42:42Z</time>
      </trkpt>
      <trkpt lat="49.63346" lon="5.01069">
        <ele>217.88</ele>
        <time>2020-08-24T12:42:59Z</time>
      </trkpt>
      <trkpt lat="49.63363" lon="5.01077">
        <ele>216.43</ele>
        <time>2020-08-24T12:43:17Z</time>
      </trkpt>
      <trkpt lat="49.63379" lon="5.01085">
        <ele>214.51</ele>
        <time>2020-08-24T12:43:34Z</time>
      </trkpt>
      <trkpt lat="49.63397" lon="5.01094">
        <ele>212.59</ele>
        <time>2020-08-24T12:43:53Z</time>
      </trkpt>
      <trkpt lat="49.63416" lon="5.01104">
        <ele>211.63</ele>
        <time>2020-08-24T12:44:12Z</time>
      </trkpt>
      <trkpt lat="49.63419" lon="5.01105">
        <ele>211.63</ele>
        <time>2020-08-24T12:44:15Z</time>
      </trkpt>
      <trkpt lat="49.63438" lon="5.01115">
        <ele>208.74</ele>
        <time>2020-08-24T12:44:34Z</time>
      </trkpt>
      <trkpt lat="49.63459" lon="5.01127">
        <ele>207.3</ele>
        <time>2020-08-24T12:44:56Z</time>
      </trkpt>
      <trkpt lat="49.63464" lon="5.01129">
        <ele>207.3</ele>
        <time>2020-08-24T12:45:01Z</time>
      </trkpt>
      <trkpt lat="49.63482" lon="5.0114">
        <ele>206.34</ele>
        <time>2020-08-24T12:45:19Z</time>
      </trkpt>
      <trkpt lat="49.635" lon="5.01152">
        <ele>206.34</ele>
        <time>2020-08-24T12:45:37Z</time>
      </trkpt>
      <trkpt lat="49.63518" lon="5.01164">
        <ele>205.38</ele>
        <time>2020-08-24T12:45:55Z</time>
      </trkpt>
      <trkpt lat="49.63535" lon="5.01178">
        <ele>202.49</ele>
        <time>2020-08-24T12:46:16Z</time>
      </trkpt>
      <trkpt lat="49.63553" lon="5.0119">
        <ele>201.05</ele>
        <time>2020-08-24T12:46:34Z</time>
      </trkpt>
      <trkpt lat="49.63571" lon="5.01203">
        <ele>201.53</ele>
        <time>2020-08-24T12:46:51Z</time>
      </trkpt>
      <trkpt lat="49.63585" lon="5.01215">
        <ele>198.17</ele>
        <time>2020-08-24T12:47:10Z</time>
      </trkpt>
      <trkpt lat="49.63602" lon="5.01231">
        <ele>194.8</ele>
        <time>2020-08-24T12:47:31Z</time>
      </trkpt>
      <trkpt lat="49.63623" lon="5.01244">
        <ele>195.77</ele>
        <time>2020-08-24T12:47:51Z</time>
      </trkpt>
      <trkpt lat="49.63639" lon="5.01258">
        <ele>195.77</ele>
        <time>2020-08-24T12:48:10Z</time>
      </trkpt>
      <trkpt lat="49.63653" lon="5.01274">
        <ele>193.36</ele>
        <time>2020-08-24T12:48:28Z</time>
      </trkpt>
      <trkpt lat="49.63671" lon="5.01293">
        <ele>190.96</ele>
        <time>2020-08-24T12:48:49Z</time>
      </trkpt>
      <trkpt lat="49.63675" lon="5.01299">
        <ele>190</ele>
        <time>2020-08-24T12:48:56Z</time>
      </trkpt>
      <trkpt lat="49.63691" lon="5.01315">
        <ele>187.11</ele>
        <time>2020-08-24T12:49:16Z</time>
      </trkpt>
      <trkpt lat="49.63711" lon="5.01336">
        <ele>187.59</ele>
        <time>2020-08-24T12:49:38Z</time>
      </trkpt>
      <trkpt lat="49.63724" lon="5.01355">
        <ele>182.31</ele>
        <time>2020-08-24T12:49:58Z</time>
      </trkpt>
      <trkpt lat="49.63741" lon="5.01373">
        <ele>181.83</ele>
        <time>2020-08-24T12:50:18Z</time>
      </trkpt>
      <trkpt lat="49.63759" lon="5.01384">
        <ele>181.35</ele>
        <time>2020-08-24T12:50:37Z</time>
      </trkpt>
      <trkpt lat="49.63767" lon="5.01388">
        <ele>181.83</ele>
        <time>2020-08-24T12:50:44Z</time>
      </trkpt>
      <trkpt lat="49.63792" lon="5.0139">
        <ele>185.19</ele>
        <time>2020-08-24T12:51:04Z</time>
      </trkpt>
      <trkpt lat="49.63809" lon="5.01385">
        <ele>184.71</ele>
        <time>2020-08-24T12:51:21Z</time>
      </trkpt>
      <trkpt lat="49.63825" lon="5.01378">
        <ele>183.27</ele>
        <time>2020-08-24T12:51:39Z</time>
      </trkpt>
      <trkpt lat="49.63844" lon="5.01368">
        <ele>180.87</ele>
        <time>2020-08-24T12:51:57Z</time>
      </trkpt>
      <trkpt lat="49.63861" lon="5.01364">
        <ele>177.98</ele>
        <time>2020-08-24T12:52:17Z</time>
      </trkpt>
      <trkpt lat="49.63876" lon="5.01363">
        <ele>175.1</ele>
        <time>2020-08-24T12:52:35Z</time>
      </trkpt>
      <trkpt lat="49.63894" lon="5.01364">
        <ele>171.25</ele>
        <time>2020-08-24T12:52:54Z</time>
      </trkpt>
      <trkpt lat="49.63912" lon="5.0136">
        <ele>166.93</ele>
        <time>2020-08-24T12:53:14Z</time>
      </trkpt>
      <trkpt lat="49.6393" lon="5.01357">
        <ele>164.52</ele>
        <time>2020-08-24T12:53:31Z</time>
      </trkpt>
      <trkpt lat="49.63954" lon="5.01353">
        <ele>165.96</ele>
        <time>2020-08-24T12:53:50Z</time>
      </trkpt>
      <trkpt lat="49.63973" lon="5.01358">
        <ele>167.41</ele>
        <time>2020-08-24T12:54:07Z</time>
      </trkpt>
      <trkpt lat="49.63989" lon="5.0137">
        <ele>167.41</ele>
        <time>2020-08-24T12:54:25Z</time>
      </trkpt>
      <trkpt lat="49.63996" lon="5.01379">
        <ele>166.45</ele>
        <time>2020-08-24T12:54:38Z</time>
      </trkpt>
      <trkpt lat="49.6401" lon="5.01398">
        <ele>165.48</ele>
        <time>2020-08-24T12:54:55Z</time>
      </trkpt>
      <trkpt lat="49.64021" lon="5.01411">
        <ele>165</ele>
        <time>2020-08-24T12:55:09Z</time>
      </trkpt>
      <trkpt lat="49.64031" lon="5.01434">
        <ele>165.48</ele>
        <time>2020-08-24T12:55:27Z</time>
      </trkpt>
      <trkpt lat="49.64044" lon="5.01462">
        <ele>166.45</ele>
        <time>2020-08-24T12:55:49Z</time>
      </trkpt>
      <trkpt lat="49.64055" lon="5.01489">
        <ele>164.52</ele>
        <time>2020-08-24T12:56:08Z</time>
      </trkpt>
      <trkpt lat="49.64065" lon="5.01511">
        <ele>164.04</ele>
        <time>2020-08-24T12:56:26Z</time>
      </trkpt>
      <trkpt lat="49.64082" lon="5.01519">
        <ele>164.04</ele>
        <time>2020-08-24T12:56:44Z</time>
      </trkpt>
      <trkpt lat="49.64099" lon="5.01511">
        <ele>164.04</ele>
        <time>2020-08-24T12:57:03Z</time>
      </trkpt>
      <trkpt lat="49.64117" lon="5.01505">
        <ele>163.56</ele>
        <time>2020-08-24T12:57:21Z</time>
      </trkpt>
      <trkpt lat="49.64142" lon="5.01498">
        <ele>165</ele>
        <time>2020-08-24T12:57:43Z</time>
      </trkpt>
      <trkpt lat="49.64143" lon="5.01498">
        <ele>165</ele>
        <time>2020-08-24T12:57:44Z</time>
      </trkpt>
      <trkpt lat="49.64167" lon="5.01491">
        <ele>166.93</ele>
        <time>2020-08-24T12:58:05Z</time>
      </trkpt>
      <trkpt lat="49.64184" lon="5.01486">
        <ele>166.93</ele>
        <time>2020-08-24T12:58:23Z</time>
      </trkpt>
      <trkpt lat="49.64204" lon="5.01475">
        <ele>166.93</ele>
        <time>2020-08-24T12:58:43Z</time>
      </trkpt>
      <trkpt lat="49.64222" lon="5.0146">
        <ele>167.89</ele>
        <time>2020-08-24T12:59:02Z</time>
      </trkpt>
      <trkpt lat="49.64236" lon="5.01445">
        <ele>167.41</ele>
        <time>2020-08-24T12:59:19Z</time>
      </trkpt>
      <trkpt lat="49.64253" lon="5.01426">
        <ele>165.48</ele>
        <time>2020-08-24T12:59:39Z</time>
      </trkpt>
      <trkpt lat="49.64269" lon="5.01409">
        <ele>164.52</ele>
        <time>2020-08-24T12:59:57Z</time>
      </trkpt>
      <trkpt lat="49.64283" lon="5.01388">
        <ele>164.04</ele>
        <time>2020-08-24T13:00:16Z</time>
      </trkpt>
      <trkpt lat="49.64295" lon="5.01374">
        <ele>165.96</ele>
        <time>2020-08-24T13:00:33Z</time>
      </trkpt>
      <trkpt lat="49.64309" lon="5.01367">
        <ele>167.89</ele>
        <time>2020-08-24T13:00:51Z</time>
      </trkpt>
      <trkpt lat="49.64329" lon="5.01355">
        <ele>171.25</ele>
        <time>2020-08-24T13:01:09Z</time>
      </trkpt>
      <trkpt lat="49.64341" lon="5.01344">
        <ele>169.81</ele>
        <time>2020-08-24T13:01:23Z</time>
      </trkpt>
      <trkpt lat="49.64351" lon="5.01326">
        <ele>167.41</ele>
        <time>2020-08-24T13:01:40Z</time>
      </trkpt>
      <trkpt lat="49.64362" lon="5.01308">
        <ele>164.04</ele>
        <time>2020-08-24T13:01:58Z</time>
      </trkpt>
      <trkpt lat="49.64372" lon="5.01294">
        <ele>161.16</ele>
        <time>2020-08-24T13:02:12Z</time>
      </trkpt>
      <trkpt lat="49.64387" lon="5.01275">
        <ele>159.24</ele>
        <time>2020-08-24T13:02:31Z</time>
      </trkpt>
      <trkpt lat="49.64394" lon="5.01253">
        <ele>160.68</ele>
        <time>2020-08-24T13:02:48Z</time>
      </trkpt>
      <trkpt lat="49.644" lon="5.01232">
        <ele>164.52</ele>
        <time>2020-08-24T13:03:01Z</time>
      </trkpt>
      <trkpt lat="49.64407" lon="5.01222">
        <ele>165.96</ele>
        <time>2020-08-24T13:03:14Z</time>
      </trkpt>
      <trkpt lat="49.64422" lon="5.01205">
        <ele>165.96</ele>
        <time>2020-08-24T13:03:32Z</time>
      </trkpt>
      <trkpt lat="49.64434" lon="5.01202">
        <ele>166.93</ele>
        <time>2020-08-24T13:03:46Z</time>
      </trkpt>
      <trkpt lat="49.6444" lon="5.01192">
        <ele>166.93</ele>
        <time>2020-08-24T13:03:54Z</time>
      </trkpt>
      <trkpt lat="49.64451" lon="5.01165">
        <ele>166.93</ele>
        <time>2020-08-24T13:04:14Z</time>
      </trkpt>
      <trkpt lat="49.64461" lon="5.01136">
        <ele>165.96</ele>
        <time>2020-08-24T13:04:34Z</time>
      </trkpt>
      <trkpt lat="49.64473" lon="5.01115">
        <ele>165.96</ele>
        <time>2020-08-24T13:04:51Z</time>
      </trkpt>
      <trkpt lat="49.64484" lon="5.01094">
        <ele>166.45</ele>
        <time>2020-08-24T13:05:07Z</time>
      </trkpt>
      <trkpt lat="49.6449" lon="5.01081">
        <ele>166.45</ele>
        <time>2020-08-24T13:05:21Z</time>
      </trkpt>
      <trkpt lat="49.64502" lon="5.01068">
        <ele>165</ele>
        <time>2020-08-24T13:05:39Z</time>
      </trkpt>
      <trkpt lat="49.64515" lon="5.01079">
        <ele>164.52</ele>
        <time>2020-08-24T13:05:55Z</time>
      </trkpt>
      <trkpt lat="49.64517" lon="5.01082">
        <ele>164.52</ele>
        <time>2020-08-24T13:05:58Z</time>
      </trkpt>
      <trkpt lat="49.64535" lon="5.01102">
        <ele>166.45</ele>
        <time>2020-08-24T13:06:18Z</time>
      </trkpt>
      <trkpt lat="49.64551" lon="5.01118">
        <ele>167.89</ele>
        <time>2020-08-24T13:06:38Z</time>
      </trkpt>
      <trkpt lat="49.64562" lon="5.01132">
        <ele>165.96</ele>
        <time>2020-08-24T13:06:54Z</time>
      </trkpt>
      <trkpt lat="49.64568" lon="5.01153">
        <ele>166.45</ele>
        <time>2020-08-24T13:07:13Z</time>
      </trkpt>
      <trkpt lat="49.64559" lon="5.01181">
        <ele>166.93</ele>
        <time>2020-08-24T13:07:32Z</time>
      </trkpt>
      <trkpt lat="49.64548" lon="5.01206">
        <ele>167.41</ele>
        <time>2020-08-24T13:07:50Z</time>
      </trkpt>
      <trkpt lat="49.64539" lon="5.01235">
        <ele>166.45</ele>
        <time>2020-08-24T13:08:10Z</time>
      </trkpt>
      <trkpt lat="49.6453" lon="5.01259">
        <ele>165.48</ele>
        <time>2020-08-24T13:08:27Z</time>
      </trkpt>
      <trkpt lat="49.64519" lon="5.01285">
        <ele>165.48</ele>
        <time>2020-08-24T13:08:45Z</time>
      </trkpt>
      <trkpt lat="49.64508" lon="5.01314">
        <ele>167.41</ele>
        <time>2020-08-24T13:09:03Z</time>
      </trkpt>
      <trkpt lat="49.64498" lon="5.01342">
        <ele>164.52</ele>
        <time>2020-08-24T13:09:21Z</time>
      </trkpt>
      <trkpt lat="49.6449" lon="5.01372">
        <ele>163.56</ele>
        <time>2020-08-24T13:09:40Z</time>
      </trkpt>
      <trkpt lat="49.64495" lon="5.01395">
        <ele>160.68</ele>
        <time>2020-08-24T13:09:57Z</time>
      </trkpt>
      <trkpt lat="49.64496" lon="5.01397">
        <ele>160.2</ele>
        <time>2020-08-24T13:09:59Z</time>
      </trkpt>
      <trkpt lat="49.64518" lon="5.01427">
        <ele>160.68</ele>
        <time>2020-08-24T13:10:23Z</time>
      </trkpt>
      <trkpt lat="49.64542" lon="5.01448">
        <ele>162.6</ele>
        <time>2020-08-24T13:10:47Z</time>
      </trkpt>
      <trkpt lat="49.64564" lon="5.01472">
        <ele>163.08</ele>
        <time>2020-08-24T13:11:11Z</time>
      </trkpt>
      <trkpt lat="49.64587" lon="5.01488">
        <ele>162.6</ele>
        <time>2020-08-24T13:11:34Z</time>
      </trkpt>
      <trkpt lat="49.64606" lon="5.01506">
        <ele>164.04</ele>
        <time>2020-08-24T13:11:54Z</time>
      </trkpt>
      <trkpt lat="49.64631" lon="5.01519">
        <ele>165.48</ele>
        <time>2020-08-24T13:12:17Z</time>
      </trkpt>
      <trkpt lat="49.64652" lon="5.01526">
        <ele>165</ele>
        <time>2020-08-24T13:12:36Z</time>
      </trkpt>
      <trkpt lat="49.6468" lon="5.0154">
        <ele>162.6</ele>
        <time>2020-08-24T13:13:01Z</time>
      </trkpt>
      <trkpt lat="49.64703" lon="5.0155">
        <ele>161.16</ele>
        <time>2020-08-24T13:13:23Z</time>
      </trkpt>
      <trkpt lat="49.64727" lon="5.01567">
        <ele>161.16</ele>
        <time>2020-08-24T13:13:47Z</time>
      </trkpt>
      <trkpt lat="49.64728" lon="5.01568">
        <ele>160.68</ele>
        <time>2020-08-24T13:13:48Z</time>
      </trkpt>
      <trkpt lat="49.64732" lon="5.01577">
        <ele>158.75</ele>
        <time>2020-08-24T13:13:55Z</time>
      </trkpt>
      <trkpt lat="49.64733" lon="5.0161">
        <ele>158.75</ele>
        <time>2020-08-24T13:14:15Z</time>
      </trkpt>
      <trkpt lat="49.64736" lon="5.01643">
        <ele>160.2</ele>
        <time>2020-08-24T13:14:34Z</time>
      </trkpt>
      <trkpt lat="49.64746" lon="5.0166">
        <ele>160.68</ele>
        <time>2020-08-24T13:14:47Z</time>
      </trkpt>
      <trkpt lat="49.64764" lon="5.01674">
        <ele>162.12</ele>
        <time>2020-08-24T13:15:07Z</time>
      </trkpt>
      <trkpt lat="49.64779" lon="5.01685">
        <ele>161.16</ele>
        <time>2020-08-24T13:15:24Z</time>
      </trkpt>
      <trkpt lat="49.64779" lon="5.01685">
        <ele>163.56</ele>
        <time>2020-08-24T13:15:42Z</time>
      </trkpt>
      <trkpt lat="49.64779" lon="5.01686">
        <ele>164.04</ele>
        <time>2020-08-24T13:16:00Z</time>
      </trkpt>
      <trkpt lat="49.6478" lon="5.01686">
        <ele>165</ele>
        <time>2020-08-24T13:16:21Z</time>
      </trkpt>
      <trkpt lat="49.6478" lon="5.01687">
        <ele>165</ele>
        <time>2020-08-24T13:16:59Z</time>
      </trkpt>
      <trkpt lat="49.64781" lon="5.01688">
        <ele>165</ele>
        <time>2020-08-24T13:17:40Z</time>
      </trkpt>
      <trkpt lat="49.64781" lon="5.01689">
        <ele>165</ele>
        <time>2020-08-24T13:18:12Z</time>
      </trkpt>
      <trkpt lat="49.64781" lon="5.01689">
        <ele>164.04</ele>
        <time>2020-08-24T13:19:02Z</time>
      </trkpt>
      <trkpt lat="49.64781" lon="5.01689">
        <ele>164.04</ele>
        <time>2020-08-24T13:19:46Z</time>
      </trkpt>
      <trkpt lat="49.64781" lon="5.01687">
        <ele>164.52</ele>
        <time>2020-08-24T13:20:11Z</time>
      </trkpt>
      <trkpt lat="49.6478" lon="5.01686">
        <ele>165</ele>
        <time>2020-08-24T13:20:39Z</time>
      </trkpt>
      <trkpt lat="49.6478" lon="5.01686">
        <ele>165.48</ele>
        <time>2020-08-24T13:20:59Z</time>
      </trkpt>
      <trkpt lat="49.6478" lon="5.01685">
        <ele>165.96</ele>
        <time>2020-08-24T13:21:16Z</time>
      </trkpt>
      <trkpt lat="49.6478" lon="5.01684">
        <ele>165.96</ele>
        <time>2020-08-24T13:21:40Z</time>
      </trkpt>
      <trkpt lat="49.6478" lon="5.01685">
        <ele>166.45</ele>
        <time>2020-08-24T13:22:04Z</time>
      </trkpt>
      <trkpt lat="49.6478" lon="5.01685">
        <ele>166.45</ele>
        <time>2020-08-24T13:22:23Z</time>
      </trkpt>
      <trkpt lat="49.6478" lon="5.01684">
        <ele>165.96</ele>
        <time>2020-08-24T13:22:44Z</time>
      </trkpt>
      <trkpt lat="49.6478" lon="5.01683">
        <ele>165.48</ele>
        <time>2020-08-24T13:23:13Z</time>
      </trkpt>
      <trkpt lat="49.64783" lon="5.01685">
        <ele>164.52</ele>
        <time>2020-08-24T13:23:25Z</time>
      </trkpt>
      <trkpt lat="49.64789" lon="5.01672">
        <ele>163.08</ele>
        <time>2020-08-24T13:23:40Z</time>
      </trkpt>
      <trkpt lat="49.64791" lon="5.01661">
        <ele>162.6</ele>
        <time>2020-08-24T13:23:48Z</time>
      </trkpt>
      <trkpt lat="49.648" lon="5.01637">
        <ele>158.27</ele>
        <time>2020-08-24T13:24:06Z</time>
      </trkpt>
      <trkpt lat="49.6481" lon="5.01608">
        <ele>156.83</ele>
        <time>2020-08-24T13:24:27Z</time>
      </trkpt>
      <trkpt lat="49.64819" lon="5.01585">
        <ele>154.91</ele>
        <time>2020-08-24T13:24:44Z</time>
      </trkpt>
      <trkpt lat="49.64831" lon="5.01553">
        <ele>154.43</ele>
        <time>2020-08-24T13:25:06Z</time>
      </trkpt>
      <trkpt lat="49.64835" lon="5.01538">
        <ele>154.43</ele>
        <time>2020-08-24T13:25:16Z</time>
      </trkpt>
      <trkpt lat="49.64845" lon="5.01512">
        <ele>152.99</ele>
        <time>2020-08-24T13:25:36Z</time>
      </trkpt>
      <trkpt lat="49.64853" lon="5.01491">
        <ele>150.1</ele>
        <time>2020-08-24T13:25:54Z</time>
      </trkpt>
      <trkpt lat="49.64856" lon="5.01481">
        <ele>150.1</ele>
        <time>2020-08-24T13:26:01Z</time>
      </trkpt>
      <trkpt lat="49.64857" lon="5.01478">
        <ele>150.1</ele>
        <time>2020-08-24T13:26:03Z</time>
      </trkpt>
      <trkpt lat="49.64867" lon="5.01448">
        <ele>151.54</ele>
        <time>2020-08-24T13:26:24Z</time>
      </trkpt>
      <trkpt lat="49.64873" lon="5.01426">
        <ele>150.1</ele>
        <time>2020-08-24T13:26:41Z</time>
      </trkpt>
      <trkpt lat="49.64885" lon="5.01401">
        <ele>152.03</ele>
        <time>2020-08-24T13:26:58Z</time>
      </trkpt>
      <trkpt lat="49.64891" lon="5.01382">
        <ele>150.1</ele>
        <time>2020-08-24T13:27:14Z</time>
      </trkpt>
      <trkpt lat="49.64896" lon="5.01363">
        <ele>152.03</ele>
        <time>2020-08-24T13:27:26Z</time>
      </trkpt>
      <trkpt lat="49.64905" lon="5.01341">
        <ele>154.43</ele>
        <time>2020-08-24T13:27:42Z</time>
      </trkpt>
      <trkpt lat="49.64913" lon="5.01315">
        <ele>154.43</ele>
        <time>2020-08-24T13:27:58Z</time>
      </trkpt>
      <trkpt lat="49.64919" lon="5.01291">
        <ele>154.91</ele>
        <time>2020-08-24T13:28:15Z</time>
      </trkpt>
      <trkpt lat="49.64926" lon="5.01264">
        <ele>154.43</ele>
        <time>2020-08-24T13:28:33Z</time>
      </trkpt>
      <trkpt lat="49.6493" lon="5.01245">
        <ele>153.47</ele>
        <time>2020-08-24T13:28:45Z</time>
      </trkpt>
      <trkpt lat="49.64933" lon="5.01213">
        <ele>153.95</ele>
        <time>2020-08-24T13:29:05Z</time>
      </trkpt>
      <trkpt lat="49.64938" lon="5.01182">
        <ele>154.91</ele>
        <time>2020-08-24T13:29:25Z</time>
      </trkpt>
      <trkpt lat="49.64943" lon="5.01151">
        <ele>154.91</ele>
        <time>2020-08-24T13:29:45Z</time>
      </trkpt>
      <trkpt lat="49.64948" lon="5.01123">
        <ele>155.87</ele>
        <time>2020-08-24T13:30:03Z</time>
      </trkpt>
      <trkpt lat="49.64949" lon="5.01117">
        <ele>155.39</ele>
        <time>2020-08-24T13:30:07Z</time>
      </trkpt>
      <trkpt lat="49.6495" lon="5.01091">
        <ele>156.35</ele>
        <time>2020-08-24T13:30:24Z</time>
      </trkpt>
      <trkpt lat="49.64951" lon="5.01062">
        <ele>154.91</ele>
        <time>2020-08-24T13:30:42Z</time>
      </trkpt>
      <trkpt lat="49.64952" lon="5.01049">
        <ele>154.91</ele>
        <time>2020-08-24T13:30:51Z</time>
      </trkpt>
      <trkpt lat="49.6495" lon="5.01017">
        <ele>155.39</ele>
        <time>2020-08-24T13:31:11Z</time>
      </trkpt>
      <trkpt lat="49.64948" lon="5.00985">
        <ele>155.39</ele>
        <time>2020-08-24T13:31:32Z</time>
      </trkpt>
      <trkpt lat="49.64945" lon="5.00954">
        <ele>154.43</ele>
        <time>2020-08-24T13:31:52Z</time>
      </trkpt>
      <trkpt lat="49.64943" lon="5.00928">
        <ele>155.39</ele>
        <time>2020-08-24T13:32:11Z</time>
      </trkpt>
      <trkpt lat="49.64943" lon="5.00902">
        <ele>153.47</ele>
        <time>2020-08-24T13:32:28Z</time>
      </trkpt>
      <trkpt lat="49.6495" lon="5.0088">
        <ele>149.14</ele>
        <time>2020-08-24T13:32:46Z</time>
      </trkpt>
      <trkpt lat="49.64956" lon="5.00858">
        <ele>146.26</ele>
        <time>2020-08-24T13:33:02Z</time>
      </trkpt>
      <trkpt lat="49.64961" lon="5.00844">
        <ele>149.14</ele>
        <time>2020-08-24T13:33:11Z</time>
      </trkpt>
      <trkpt lat="49.64973" lon="5.00822">
        <ele>151.06</ele>
        <time>2020-08-24T13:33:29Z</time>
      </trkpt>
      <trkpt lat="49.64984" lon="5.00797">
        <ele>155.39</ele>
        <time>2020-08-24T13:33:47Z</time>
      </trkpt>
      <trkpt lat="49.64985" lon="5.00795">
        <ele>155.39</ele>
        <time>2020-08-24T13:33:49Z</time>
      </trkpt>
      <trkpt lat="49.64987" lon="5.00788">
        <ele>154.91</ele>
        <time>2020-08-24T13:33:54Z</time>
      </trkpt>
      <trkpt lat="49.64994" lon="5.00766">
        <ele>152.51</ele>
        <time>2020-08-24T13:34:11Z</time>
      </trkpt>
      <trkpt lat="49.65002" lon="5.0074">
        <ele>151.06</ele>
        <time>2020-08-24T13:34:27Z</time>
      </trkpt>
      <trkpt lat="49.65007" lon="5.00726">
        <ele>150.58</ele>
        <time>2020-08-24T13:34:37Z</time>
      </trkpt>
      <trkpt lat="49.65016" lon="5.00696">
        <ele>151.54</ele>
        <time>2020-08-24T13:34:57Z</time>
      </trkpt>
      <trkpt lat="49.65021" lon="5.00671">
        <ele>151.06</ele>
        <time>2020-08-24T13:35:14Z</time>
      </trkpt>
      <trkpt lat="49.65021" lon="5.00667">
        <ele>151.54</ele>
        <time>2020-08-24T13:35:17Z</time>
      </trkpt>
      <trkpt lat="49.65015" lon="5.00653">
        <ele>152.03</ele>
        <time>2020-08-24T13:35:34Z</time>
      </trkpt>
      <trkpt lat="49.65006" lon="5.00632">
        <ele>151.06</ele>
        <time>2020-08-24T13:35:52Z</time>
      </trkpt>
      <trkpt lat="49.65004" lon="5.00626">
        <ele>150.1</ele>
        <time>2020-08-24T13:35:57Z</time>
      </trkpt>
      <trkpt lat="49.65" lon="5.00593">
        <ele>152.51</ele>
        <time>2020-08-24T13:36:15Z</time>
      </trkpt>
      <trkpt lat="49.64996" lon="5.00565">
        <ele>153.47</ele>
        <time>2020-08-24T13:36:34Z</time>
      </trkpt>
      <trkpt lat="49.64996" lon="5.00546">
        <ele>152.99</ele>
        <time>2020-08-24T13:36:49Z</time>
      </trkpt>
      <trkpt lat="49.64998" lon="5.00521">
        <ele>152.99</ele>
        <time>2020-08-24T13:37:06Z</time>
      </trkpt>
      <trkpt lat="49.64999" lon="5.00514">
        <ele>152.51</ele>
        <time>2020-08-24T13:37:11Z</time>
      </trkpt>
      <trkpt lat="49.65005" lon="5.00491">
        <ele>151.06</ele>
        <time>2020-08-24T13:37:29Z</time>
      </trkpt>
      <trkpt lat="49.65008" lon="5.00468">
        <ele>149.62</ele>
        <time>2020-08-24T13:37:45Z</time>
      </trkpt>
      <trkpt lat="49.6501" lon="5.00453">
        <ele>152.03</ele>
        <time>2020-08-24T13:38:05Z</time>
      </trkpt>
      <trkpt lat="49.65015" lon="5.00433">
        <ele>151.06</ele>
        <time>2020-08-24T13:38:21Z</time>
      </trkpt>
      <trkpt lat="49.65022" lon="5.0041">
        <ele>150.58</ele>
        <time>2020-08-24T13:38:37Z</time>
      </trkpt>
      <trkpt lat="49.65029" lon="5.00381">
        <ele>152.51</ele>
        <time>2020-08-24T13:38:53Z</time>
      </trkpt>
      <trkpt lat="49.65037" lon="5.00359">
        <ele>153.95</ele>
        <time>2020-08-24T13:39:12Z</time>
      </trkpt>
      <trkpt lat="49.65047" lon="5.00334">
        <ele>153.95</ele>
        <time>2020-08-24T13:39:31Z</time>
      </trkpt>
      <trkpt lat="49.65058" lon="5.00307">
        <ele>156.35</ele>
        <time>2020-08-24T13:39:49Z</time>
      </trkpt>
      <trkpt lat="49.6507" lon="5.00282">
        <ele>157.31</ele>
        <time>2020-08-24T13:40:07Z</time>
      </trkpt>
      <trkpt lat="49.65082" lon="5.00259">
        <ele>157.31</ele>
        <time>2020-08-24T13:40:27Z</time>
      </trkpt>
      <trkpt lat="49.65091" lon="5.00241">
        <ele>156.83</ele>
        <time>2020-08-24T13:40:42Z</time>
      </trkpt>
      <trkpt lat="49.65099" lon="5.0023">
        <ele>156.35</ele>
        <time>2020-08-24T13:40:52Z</time>
      </trkpt>
      <trkpt lat="49.65106" lon="5.00222">
        <ele>156.83</ele>
        <time>2020-08-24T13:41:01Z</time>
      </trkpt>
      <trkpt lat="49.65118" lon="5.00206">
        <ele>156.83</ele>
        <time>2020-08-24T13:41:17Z</time>
      </trkpt>
      <trkpt lat="49.65132" lon="5.00191">
        <ele>155.39</ele>
        <time>2020-08-24T13:41:36Z</time>
      </trkpt>
      <trkpt lat="49.65145" lon="5.00181">
        <ele>152.51</ele>
        <time>2020-08-24T13:41:54Z</time>
      </trkpt>
      <trkpt lat="49.6516" lon="5.00173">
        <ele>152.51</ele>
        <time>2020-08-24T13:42:10Z</time>
      </trkpt>
      <trkpt lat="49.65172" lon="5.00166">
        <ele>150.58</ele>
        <time>2020-08-24T13:42:27Z</time>
      </trkpt>
      <trkpt lat="49.65194" lon="5.00154">
        <ele>150.58</ele>
        <time>2020-08-24T13:42:46Z</time>
      </trkpt>
      <trkpt lat="49.65205" lon="5.00151">
        <ele>153.95</ele>
        <time>2020-08-24T13:43:00Z</time>
      </trkpt>
      <trkpt lat="49.65219" lon="5.00143">
        <ele>151.06</ele>
        <time>2020-08-24T13:43:19Z</time>
      </trkpt>
      <trkpt lat="49.65229" lon="5.00126">
        <ele>149.14</ele>
        <time>2020-08-24T13:43:35Z</time>
      </trkpt>
      <trkpt lat="49.65231" lon="5.00123">
        <ele>149.14</ele>
        <time>2020-08-24T13:43:38Z</time>
      </trkpt>
      <trkpt lat="49.65247" lon="5.00103">
        <ele>151.06</ele>
        <time>2020-08-24T13:43:58Z</time>
      </trkpt>
      <trkpt lat="49.6526" lon="5.00088">
        <ele>151.06</ele>
        <time>2020-08-24T13:44:14Z</time>
      </trkpt>
      <trkpt lat="49.65267" lon="5.00075">
        <ele>151.06</ele>
        <time>2020-08-24T13:44:25Z</time>
      </trkpt>
      <trkpt lat="49.65282" lon="5.00056">
        <ele>151.54</ele>
        <time>2020-08-24T13:44:43Z</time>
      </trkpt>
      <trkpt lat="49.65294" lon="5.00037">
        <ele>150.58</ele>
        <time>2020-08-24T13:45:01Z</time>
      </trkpt>
      <trkpt lat="49.65296" lon="5.00016">
        <ele>150.58</ele>
        <time>2020-08-24T13:45:17Z</time>
      </trkpt>
      <trkpt lat="49.65285" lon="4.99995">
        <ele>149.14</ele>
        <time>2020-08-24T13:45:36Z</time>
      </trkpt>
      <trkpt lat="49.6527" lon="4.99976">
        <ele>148.18</ele>
        <time>2020-08-24T13:45:57Z</time>
      </trkpt>
      <trkpt lat="49.65262" lon="4.99964">
        <ele>148.66</ele>
        <time>2020-08-24T13:46:10Z</time>
      </trkpt>
      <trkpt lat="49.6525" lon="4.99941">
        <ele>154.91</ele>
        <time>2020-08-24T13:46:27Z</time>
      </trkpt>
      <trkpt lat="49.65248" lon="4.99924">
        <ele>158.75</ele>
        <time>2020-08-24T13:46:43Z</time>
      </trkpt>
      <trkpt lat="49.65234" lon="4.99909">
        <ele>158.75</ele>
        <time>2020-08-24T13:47:02Z</time>
      </trkpt>
      <trkpt lat="49.65219" lon="4.99891">
        <ele>158.75</ele>
        <time>2020-08-24T13:47:22Z</time>
      </trkpt>
      <trkpt lat="49.65219" lon="4.99886">
        <ele>158.27</ele>
        <time>2020-08-24T13:47:27Z</time>
      </trkpt>
      <trkpt lat="49.65234" lon="4.99865">
        <ele>153.95</ele>
        <time>2020-08-24T13:47:45Z</time>
      </trkpt>
      <trkpt lat="49.65247" lon="4.99845">
        <ele>152.51</ele>
        <time>2020-08-24T13:48:05Z</time>
      </trkpt>
      <trkpt lat="49.65253" lon="4.99839">
        <ele>151.54</ele>
        <time>2020-08-24T13:48:23Z</time>
      </trkpt>
      <trkpt lat="49.65254" lon="4.99837">
        <ele>152.99</ele>
        <time>2020-08-24T13:48:45Z</time>
      </trkpt>
      <trkpt lat="49.65255" lon="4.99838">
        <ele>154.91</ele>
        <time>2020-08-24T13:49:07Z</time>
      </trkpt>
      <trkpt lat="49.65255" lon="4.99838">
        <ele>156.83</ele>
        <time>2020-08-24T13:49:35Z</time>
      </trkpt>
      <trkpt lat="49.65255" lon="4.99839">
        <ele>158.27</ele>
        <time>2020-08-24T13:49:54Z</time>
      </trkpt>
      <trkpt lat="49.65255" lon="4.99841">
        <ele>158.75</ele>
        <time>2020-08-24T13:50:16Z</time>
      </trkpt>
      <trkpt lat="49.65265" lon="4.99822">
        <ele>155.87</ele>
        <time>2020-08-24T13:50:36Z</time>
      </trkpt>
      <trkpt lat="49.65288" lon="4.99795">
        <ele>156.35</ele>
        <time>2020-08-24T13:50:56Z</time>
      </trkpt>
      <trkpt lat="49.65307" lon="4.99767">
        <ele>160.2</ele>
        <time>2020-08-24T13:51:16Z</time>
      </trkpt>
      <trkpt lat="49.65322" lon="4.99739">
        <ele>163.56</ele>
        <time>2020-08-24T13:51:35Z</time>
      </trkpt>
      <trkpt lat="49.65333" lon="4.99714">
        <ele>165.96</ele>
        <time>2020-08-24T13:51:54Z</time>
      </trkpt>
      <trkpt lat="49.65345" lon="4.99689">
        <ele>165</ele>
        <time>2020-08-24T13:52:13Z</time>
      </trkpt>
      <trkpt lat="49.65353" lon="4.99663">
        <ele>164.52</ele>
        <time>2020-08-24T13:52:31Z</time>
      </trkpt>
      <trkpt lat="49.65361" lon="4.99637">
        <ele>162.6</ele>
        <time>2020-08-24T13:52:52Z</time>
      </trkpt>
      <trkpt lat="49.6537" lon="4.99614">
        <ele>160.2</ele>
        <time>2020-08-24T13:53:10Z</time>
      </trkpt>
      <trkpt lat="49.6538" lon="4.9959">
        <ele>159.72</ele>
        <time>2020-08-24T13:53:29Z</time>
      </trkpt>
      <trkpt lat="49.65392" lon="4.99564">
        <ele>160.68</ele>
        <time>2020-08-24T13:53:49Z</time>
      </trkpt>
      <trkpt lat="49.65407" lon="4.99535">
        <ele>164.52</ele>
        <time>2020-08-24T13:54:10Z</time>
      </trkpt>
      <trkpt lat="49.65425" lon="4.99509">
        <ele>166.45</ele>
        <time>2020-08-24T13:54:32Z</time>
      </trkpt>
      <trkpt lat="49.65438" lon="4.99492">
        <ele>167.41</ele>
        <time>2020-08-24T13:54:48Z</time>
      </trkpt>
      <trkpt lat="49.65451" lon="4.99464">
        <ele>167.89</ele>
        <time>2020-08-24T13:55:11Z</time>
      </trkpt>
      <trkpt lat="49.65464" lon="4.9944">
        <ele>167.89</ele>
        <time>2020-08-24T13:55:31Z</time>
      </trkpt>
      <trkpt lat="49.65475" lon="4.99417">
        <ele>166.93</ele>
        <time>2020-08-24T13:55:50Z</time>
      </trkpt>
      <trkpt lat="49.6549" lon="4.99393">
        <ele>165</ele>
        <time>2020-08-24T13:56:11Z</time>
      </trkpt>
      <trkpt lat="49.65505" lon="4.99368">
        <ele>164.04</ele>
        <time>2020-08-24T13:56:33Z</time>
      </trkpt>
      <trkpt lat="49.65517" lon="4.99347">
        <ele>163.08</ele>
        <time>2020-08-24T13:56:51Z</time>
      </trkpt>
      <trkpt lat="49.65532" lon="4.99325">
        <ele>163.56</ele>
        <time>2020-08-24T13:57:10Z</time>
      </trkpt>
      <trkpt lat="49.65541" lon="4.9931">
        <ele>164.04</ele>
        <time>2020-08-24T13:57:23Z</time>
      </trkpt>
      <trkpt lat="49.65555" lon="4.99285">
        <ele>164.52</ele>
        <time>2020-08-24T13:57:44Z</time>
      </trkpt>
      <trkpt lat="49.65568" lon="4.99268">
        <ele>164.04</ele>
        <time>2020-08-24T13:58:05Z</time>
      </trkpt>
      <trkpt lat="49.65577" lon="4.99256">
        <ele>163.56</ele>
        <time>2020-08-24T13:58:22Z</time>
      </trkpt>
      <trkpt lat="49.65572" lon="4.99253">
        <ele>161.16</ele>
        <time>2020-08-24T13:58:37Z</time>
      </trkpt>
      <trkpt lat="49.65561" lon="4.99243">
        <ele>159.24</ele>
        <time>2020-08-24T13:58:52Z</time>
      </trkpt>
      <trkpt lat="49.65538" lon="4.99223">
        <ele>157.79</ele>
        <time>2020-08-24T13:59:12Z</time>
      </trkpt>
      <trkpt lat="49.65519" lon="4.99209">
        <ele>156.35</ele>
        <time>2020-08-24T13:59:33Z</time>
      </trkpt>
      <trkpt lat="49.65515" lon="4.99208">
        <ele>156.35</ele>
        <time>2020-08-24T13:59:36Z</time>
      </trkpt>
      <trkpt lat="49.65497" lon="4.99199">
        <ele>156.35</ele>
        <time>2020-08-24T13:59:53Z</time>
      </trkpt>
      <trkpt lat="49.65494" lon="4.99201">
        <ele>156.35</ele>
        <time>2020-08-24T13:59:56Z</time>
      </trkpt>
      <trkpt lat="49.65489" lon="4.99222">
        <ele>155.39</ele>
        <time>2020-08-24T14:00:13Z</time>
      </trkpt>
      <trkpt lat="49.65481" lon="4.99257">
        <ele>153.47</ele>
        <time>2020-08-24T14:00:37Z</time>
      </trkpt>
      <trkpt lat="49.65466" lon="4.99285">
        <ele>154.43</ele>
        <time>2020-08-24T14:00:59Z</time>
      </trkpt>
      <trkpt lat="49.65457" lon="4.99286">
        <ele>153.95</ele>
        <time>2020-08-24T14:01:07Z</time>
      </trkpt>
      <trkpt lat="49.65439" lon="4.99265">
        <ele>153.95</ele>
        <time>2020-08-24T14:01:27Z</time>
      </trkpt>
      <trkpt lat="49.65426" lon="4.99241">
        <ele>154.43</ele>
        <time>2020-08-24T14:01:45Z</time>
      </trkpt>
      <trkpt lat="49.65413" lon="4.99218">
        <ele>153.47</ele>
        <time>2020-08-24T14:02:04Z</time>
      </trkpt>
      <trkpt lat="49.65397" lon="4.99196">
        <ele>154.91</ele>
        <time>2020-08-24T14:02:23Z</time>
      </trkpt>
      <trkpt lat="49.65381" lon="4.99187">
        <ele>155.87</ele>
        <time>2020-08-24T14:02:39Z</time>
      </trkpt>
      <trkpt lat="49.65371" lon="4.99188">
        <ele>156.35</ele>
        <time>2020-08-24T14:02:55Z</time>
      </trkpt>
      <trkpt lat="49.65368" lon="4.99169">
        <ele>152.99</ele>
        <time>2020-08-24T14:03:10Z</time>
      </trkpt>
      <trkpt lat="49.65366" lon="4.99164">
        <ele>152.03</ele>
        <time>2020-08-24T14:03:14Z</time>
      </trkpt>
      <trkpt lat="49.65354" lon="4.99141">
        <ele>153.47</ele>
        <time>2020-08-24T14:03:32Z</time>
      </trkpt>
      <trkpt lat="49.65341" lon="4.99116">
        <ele>152.99</ele>
        <time>2020-08-24T14:03:51Z</time>
      </trkpt>
      <trkpt lat="49.65332" lon="4.9909">
        <ele>152.03</ele>
        <time>2020-08-24T14:04:09Z</time>
      </trkpt>
      <trkpt lat="49.65323" lon="4.99065">
        <ele>152.51</ele>
        <time>2020-08-24T14:04:27Z</time>
      </trkpt>
      <trkpt lat="49.65313" lon="4.9904">
        <ele>152.51</ele>
        <time>2020-08-24T14:04:45Z</time>
      </trkpt>
      <trkpt lat="49.65296" lon="4.99023">
        <ele>153.47</ele>
        <time>2020-08-24T14:05:04Z</time>
      </trkpt>
      <trkpt lat="49.65281" lon="4.99004">
        <ele>154.43</ele>
        <time>2020-08-24T14:05:21Z</time>
      </trkpt>
      <trkpt lat="49.6526" lon="4.98989">
        <ele>155.39</ele>
        <time>2020-08-24T14:05:44Z</time>
      </trkpt>
      <trkpt lat="49.65243" lon="4.98974">
        <ele>155.87</ele>
        <time>2020-08-24T14:06:02Z</time>
      </trkpt>
      <trkpt lat="49.65227" lon="4.98958">
        <ele>155.39</ele>
        <time>2020-08-24T14:06:20Z</time>
      </trkpt>
      <trkpt lat="49.65204" lon="4.98939">
        <ele>155.39</ele>
        <time>2020-08-24T14:06:44Z</time>
      </trkpt>
      <trkpt lat="49.65185" lon="4.98922">
        <ele>153.47</ele>
        <time>2020-08-24T14:07:06Z</time>
      </trkpt>
      <trkpt lat="49.65165" lon="4.98903">
        <ele>152.51</ele>
        <time>2020-08-24T14:07:29Z</time>
      </trkpt>
      <trkpt lat="49.65144" lon="4.98884">
        <ele>151.54</ele>
        <time>2020-08-24T14:07:52Z</time>
      </trkpt>
      <trkpt lat="49.65123" lon="4.98864">
        <ele>151.06</ele>
        <time>2020-08-24T14:08:16Z</time>
      </trkpt>
      <trkpt lat="49.65103" lon="4.98843">
        <ele>150.58</ele>
        <time>2020-08-24T14:08:39Z</time>
      </trkpt>
      <trkpt lat="49.65082" lon="4.98822">
        <ele>150.58</ele>
        <time>2020-08-24T14:09:02Z</time>
      </trkpt>
      <trkpt lat="49.65059" lon="4.98801">
        <ele>152.51</ele>
        <time>2020-08-24T14:09:25Z</time>
      </trkpt>
      <trkpt lat="49.65039" lon="4.98782">
        <ele>152.99</ele>
        <time>2020-08-24T14:09:46Z</time>
      </trkpt>
      <trkpt lat="49.65019" lon="4.9876">
        <ele>153.95</ele>
        <time>2020-08-24T14:10:08Z</time>
      </trkpt>
      <trkpt lat="49.65" lon="4.98742">
        <ele>153.95</ele>
        <time>2020-08-24T14:10:28Z</time>
      </trkpt>
      <trkpt lat="49.6498" lon="4.9873">
        <ele>152.51</ele>
        <time>2020-08-24T14:10:49Z</time>
      </trkpt>
      <trkpt lat="49.64961" lon="4.98726">
        <ele>154.91</ele>
        <time>2020-08-24T14:11:10Z</time>
      </trkpt>
      <trkpt lat="49.64958" lon="4.98724">
        <ele>155.39</ele>
        <time>2020-08-24T14:11:25Z</time>
      </trkpt>
      <trkpt lat="49.64958" lon="4.98723">
        <ele>155.87</ele>
        <time>2020-08-24T14:11:45Z</time>
      </trkpt>
      <trkpt lat="49.64959" lon="4.98724">
        <ele>155.87</ele>
        <time>2020-08-24T14:12:04Z</time>
      </trkpt>
      <trkpt lat="49.64959" lon="4.98725">
        <ele>156.35</ele>
        <time>2020-08-24T14:12:31Z</time>
      </trkpt>
      <trkpt lat="49.64959" lon="4.98727">
        <ele>156.83</ele>
        <time>2020-08-24T14:13:00Z</time>
      </trkpt>
      <trkpt lat="49.64959" lon="4.98727">
        <ele>157.31</ele>
        <time>2020-08-24T14:13:29Z</time>
      </trkpt>
      <trkpt lat="49.64959" lon="4.98728">
        <ele>157.31</ele>
        <time>2020-08-24T14:14:05Z</time>
      </trkpt>
      <trkpt lat="49.64959" lon="4.98728">
        <ele>157.31</ele>
        <time>2020-08-24T14:14:33Z</time>
      </trkpt>
      <trkpt lat="49.64959" lon="4.98728">
        <ele>158.27</ele>
        <time>2020-08-24T14:15:05Z</time>
      </trkpt>
      <trkpt lat="49.64958" lon="4.98729">
        <ele>158.27</ele>
        <time>2020-08-24T14:15:36Z</time>
      </trkpt>
      <trkpt lat="49.64958" lon="4.98729">
        <ele>158.27</ele>
        <time>2020-08-24T14:16:20Z</time>
      </trkpt>
      <trkpt lat="49.64957" lon="4.98728">
        <ele>157.79</ele>
        <time>2020-08-24T14:16:55Z</time>
      </trkpt>
      <trkpt lat="49.64957" lon="4.98728">
        <ele>157.31</ele>
        <time>2020-08-24T14:17:26Z</time>
      </trkpt>
      <trkpt lat="49.64957" lon="4.98728">
        <ele>157.31</ele>
        <time>2020-08-24T14:17:54Z</time>
      </trkpt>
      <trkpt lat="49.64956" lon="4.98728">
        <ele>157.31</ele>
        <time>2020-08-24T14:18:30Z</time>
      </trkpt>
      <trkpt lat="49.64957" lon="4.98728">
        <ele>157.79</ele>
        <time>2020-08-24T14:18:55Z</time>
      </trkpt>
      <trkpt lat="49.64956" lon="4.98728">
        <ele>157.79</ele>
        <time>2020-08-24T14:19:29Z</time>
      </trkpt>
      <trkpt lat="49.64957" lon="4.98726">
        <ele>157.31</ele>
        <time>2020-08-24T14:20:13Z</time>
      </trkpt>
      <trkpt lat="49.64957" lon="4.98726">
        <ele>157.79</ele>
        <time>2020-08-24T14:20:43Z</time>
      </trkpt>
      <trkpt lat="49.64957" lon="4.98726">
        <ele>157.79</ele>
        <time>2020-08-24T14:21:12Z</time>
      </trkpt>
      <trkpt lat="49.64958" lon="4.98726">
        <ele>157.79</ele>
        <time>2020-08-24T14:21:43Z</time>
      </trkpt>
      <trkpt lat="49.64957" lon="4.98726">
        <ele>158.27</ele>
        <time>2020-08-24T14:22:06Z</time>
      </trkpt>
      <trkpt lat="49.64957" lon="4.98727">
        <ele>157.31</ele>
        <time>2020-08-24T14:22:33Z</time>
      </trkpt>
      <trkpt lat="49.64957" lon="4.98725">
        <ele>156.83</ele>
        <time>2020-08-24T14:22:57Z</time>
      </trkpt>
      <trkpt lat="49.64956" lon="4.98725">
        <ele>156.83</ele>
        <time>2020-08-24T14:23:22Z</time>
      </trkpt>
      <trkpt lat="49.64955" lon="4.98725">
        <ele>156.83</ele>
        <time>2020-08-24T14:23:55Z</time>
      </trkpt>
      <trkpt lat="49.64956" lon="4.98725">
        <ele>156.83</ele>
        <time>2020-08-24T14:24:19Z</time>
      </trkpt>
      <trkpt lat="49.64956" lon="4.98726">
        <ele>155.87</ele>
        <time>2020-08-24T14:24:42Z</time>
      </trkpt>
      <trkpt lat="49.64956" lon="4.98729">
        <ele>154.91</ele>
        <time>2020-08-24T14:24:58Z</time>
      </trkpt>
      <trkpt lat="49.64956" lon="4.98732">
        <ele>154.43</ele>
        <time>2020-08-24T14:25:37Z</time>
      </trkpt>
      <trkpt lat="49.64957" lon="4.98727">
        <ele>155.87</ele>
        <time>2020-08-24T14:25:54Z</time>
      </trkpt>
      <trkpt lat="49.64956" lon="4.98725">
        <ele>156.83</ele>
        <time>2020-08-24T14:26:09Z</time>
      </trkpt>
      <trkpt lat="49.64956" lon="4.98725">
        <ele>156.83</ele>
        <time>2020-08-24T14:26:36Z</time>
      </trkpt>
      <trkpt lat="49.64956" lon="4.98725">
        <ele>157.79</ele>
        <time>2020-08-24T14:26:57Z</time>
      </trkpt>
      <trkpt lat="49.64957" lon="4.98723">
        <ele>157.79</ele>
        <time>2020-08-24T14:27:19Z</time>
      </trkpt>
      <trkpt lat="49.64952" lon="4.98708">
        <ele>157.79</ele>
        <time>2020-08-24T14:27:32Z</time>
      </trkpt>
      <trkpt lat="49.64943" lon="4.98695">
        <ele>157.79</ele>
        <time>2020-08-24T14:27:45Z</time>
      </trkpt>
      <trkpt lat="49.64927" lon="4.98682">
        <ele>158.27</ele>
        <time>2020-08-24T14:28:03Z</time>
      </trkpt>
      <trkpt lat="49.64912" lon="4.98676">
        <ele>157.79</ele>
        <time>2020-08-24T14:28:20Z</time>
      </trkpt>
      <trkpt lat="49.64895" lon="4.98666">
        <ele>159.24</ele>
        <time>2020-08-24T14:28:38Z</time>
      </trkpt>
      <trkpt lat="49.64875" lon="4.98651">
        <ele>159.24</ele>
        <time>2020-08-24T14:28:57Z</time>
      </trkpt>
      <trkpt lat="49.64856" lon="4.98638">
        <ele>160.2</ele>
        <time>2020-08-24T14:29:16Z</time>
      </trkpt>
      <trkpt lat="49.64838" lon="4.98626">
        <ele>162.12</ele>
        <time>2020-08-24T14:29:34Z</time>
      </trkpt>
      <trkpt lat="49.64818" lon="4.98613">
        <ele>161.16</ele>
        <time>2020-08-24T14:29:55Z</time>
      </trkpt>
      <trkpt lat="49.648" lon="4.98603">
        <ele>160.2</ele>
        <time>2020-08-24T14:30:14Z</time>
      </trkpt>
      <trkpt lat="49.6478" lon="4.98592">
        <ele>159.72</ele>
        <time>2020-08-24T14:30:35Z</time>
      </trkpt>
      <trkpt lat="49.64762" lon="4.9858">
        <ele>158.27</ele>
        <time>2020-08-24T14:30:54Z</time>
      </trkpt>
      <trkpt lat="49.64745" lon="4.98571">
        <ele>154.43</ele>
        <time>2020-08-24T14:31:12Z</time>
      </trkpt>
      <trkpt lat="49.64721" lon="4.9856">
        <ele>154.43</ele>
        <time>2020-08-24T14:31:35Z</time>
      </trkpt>
      <trkpt lat="49.64703" lon="4.98549">
        <ele>151.54</ele>
        <time>2020-08-24T14:31:55Z</time>
      </trkpt>
      <trkpt lat="49.64681" lon="4.98538">
        <ele>152.03</ele>
        <time>2020-08-24T14:32:15Z</time>
      </trkpt>
      <trkpt lat="49.64664" lon="4.9853">
        <ele>151.54</ele>
        <time>2020-08-24T14:32:32Z</time>
      </trkpt>
      <trkpt lat="49.6464" lon="4.98518">
        <ele>152.51</ele>
        <time>2020-08-24T14:32:54Z</time>
      </trkpt>
      <trkpt lat="49.64622" lon="4.98508">
        <ele>154.91</ele>
        <time>2020-08-24T14:33:11Z</time>
      </trkpt>
      <trkpt lat="49.64599" lon="4.98493">
        <ele>161.16</ele>
        <time>2020-08-24T14:33:33Z</time>
      </trkpt>
      <trkpt lat="49.64579" lon="4.98479">
        <ele>161.64</ele>
        <time>2020-08-24T14:33:51Z</time>
      </trkpt>
      <trkpt lat="49.64557" lon="4.98469">
        <ele>162.12</ele>
        <time>2020-08-24T14:34:11Z</time>
      </trkpt>
      <trkpt lat="49.64537" lon="4.98454">
        <ele>161.16</ele>
        <time>2020-08-24T14:34:32Z</time>
      </trkpt>
      <trkpt lat="49.64517" lon="4.98443">
        <ele>160.68</ele>
        <time>2020-08-24T14:34:51Z</time>
      </trkpt>
      <trkpt lat="49.645" lon="4.98433">
        <ele>160.2</ele>
        <time>2020-08-24T14:35:08Z</time>
      </trkpt>
      <trkpt lat="49.64481" lon="4.98423">
        <ele>157.79</ele>
        <time>2020-08-24T14:35:27Z</time>
      </trkpt>
      <trkpt lat="49.64462" lon="4.98413">
        <ele>154.91</ele>
        <time>2020-08-24T14:35:45Z</time>
      </trkpt>
      <trkpt lat="49.64448" lon="4.98404">
        <ele>152.51</ele>
        <time>2020-08-24T14:36:00Z</time>
      </trkpt>
      <trkpt lat="49.6444" lon="4.98401">
        <ele>150.1</ele>
        <time>2020-08-24T14:36:08Z</time>
      </trkpt>
      <trkpt lat="49.64419" lon="4.98387">
        <ele>149.62</ele>
        <time>2020-08-24T14:36:27Z</time>
      </trkpt>
      <trkpt lat="49.64401" lon="4.98375">
        <ele>149.62</ele>
        <time>2020-08-24T14:36:45Z</time>
      </trkpt>
      <trkpt lat="49.6438" lon="4.98361">
        <ele>152.51</ele>
        <time>2020-08-24T14:37:03Z</time>
      </trkpt>
      <trkpt lat="49.64362" lon="4.98348">
        <ele>152.03</ele>
        <time>2020-08-24T14:37:22Z</time>
      </trkpt>
      <trkpt lat="49.64343" lon="4.98332">
        <ele>151.54</ele>
        <time>2020-08-24T14:37:42Z</time>
      </trkpt>
      <trkpt lat="49.64326" lon="4.98317">
        <ele>149.62</ele>
        <time>2020-08-24T14:38:00Z</time>
      </trkpt>
      <trkpt lat="49.64307" lon="4.98301">
        <ele>152.99</ele>
        <time>2020-08-24T14:38:18Z</time>
      </trkpt>
      <trkpt lat="49.64288" lon="4.98287">
        <ele>150.58</ele>
        <time>2020-08-24T14:38:39Z</time>
      </trkpt>
      <trkpt lat="49.64272" lon="4.98272">
        <ele>153.47</ele>
        <time>2020-08-24T14:38:55Z</time>
      </trkpt>
      <trkpt lat="49.64254" lon="4.98257">
        <ele>152.03</ele>
        <time>2020-08-24T14:39:14Z</time>
      </trkpt>
      <trkpt lat="49.64237" lon="4.9824">
        <ele>151.06</ele>
        <time>2020-08-24T14:39:33Z</time>
      </trkpt>
      <trkpt lat="49.64219" lon="4.98221">
        <ele>153.95</ele>
        <time>2020-08-24T14:39:51Z</time>
      </trkpt>
      <trkpt lat="49.64203" lon="4.98208">
        <ele>156.35</ele>
        <time>2020-08-24T14:40:08Z</time>
      </trkpt>
      <trkpt lat="49.6419" lon="4.98193">
        <ele>157.31</ele>
        <time>2020-08-24T14:40:23Z</time>
      </trkpt>
      <trkpt lat="49.64175" lon="4.9818">
        <ele>157.31</ele>
        <time>2020-08-24T14:40:40Z</time>
      </trkpt>
      <trkpt lat="49.64158" lon="4.98166">
        <ele>157.31</ele>
        <time>2020-08-24T14:40:58Z</time>
      </trkpt>
      <trkpt lat="49.64143" lon="4.98154">
        <ele>153.95</ele>
        <time>2020-08-24T14:41:16Z</time>
      </trkpt>
      <trkpt lat="49.64128" lon="4.98139">
        <ele>152.99</ele>
        <time>2020-08-24T14:41:31Z</time>
      </trkpt>
      <trkpt lat="49.64113" lon="4.98123">
        <ele>149.14</ele>
        <time>2020-08-24T14:41:49Z</time>
      </trkpt>
      <trkpt lat="49.64095" lon="4.98104">
        <ele>149.14</ele>
        <time>2020-08-24T14:42:08Z</time>
      </trkpt>
      <trkpt lat="49.64084" lon="4.98093">
        <ele>147.22</ele>
        <time>2020-08-24T14:42:23Z</time>
      </trkpt>
      <trkpt lat="49.64068" lon="4.9808">
        <ele>146.74</ele>
        <time>2020-08-24T14:42:40Z</time>
      </trkpt>
      <trkpt lat="49.6405" lon="4.98064">
        <ele>151.54</ele>
        <time>2020-08-24T14:42:55Z</time>
      </trkpt>
      <trkpt lat="49.64035" lon="4.98049">
        <ele>152.51</ele>
        <time>2020-08-24T14:43:12Z</time>
      </trkpt>
      <trkpt lat="49.64019" lon="4.98034">
        <ele>150.58</ele>
        <time>2020-08-24T14:43:30Z</time>
      </trkpt>
      <trkpt lat="49.64003" lon="4.98018">
        <ele>150.58</ele>
        <time>2020-08-24T14:43:48Z</time>
      </trkpt>
      <trkpt lat="49.63988" lon="4.98003">
        <ele>150.1</ele>
        <time>2020-08-24T14:44:06Z</time>
      </trkpt>
      <trkpt lat="49.63971" lon="4.97988">
        <ele>152.99</ele>
        <time>2020-08-24T14:44:23Z</time>
      </trkpt>
      <trkpt lat="49.63955" lon="4.97974">
        <ele>152.03</ele>
        <time>2020-08-24T14:44:41Z</time>
      </trkpt>
      <trkpt lat="49.63943" lon="4.97964">
        <ele>150.58</ele>
        <time>2020-08-24T14:44:56Z</time>
      </trkpt>
      <trkpt lat="49.63929" lon="4.97948">
        <ele>149.62</ele>
        <time>2020-08-24T14:45:12Z</time>
      </trkpt>
      <trkpt lat="49.63914" lon="4.97934">
        <ele>153.95</ele>
        <time>2020-08-24T14:45:30Z</time>
      </trkpt>
      <trkpt lat="49.63898" lon="4.97919">
        <ele>151.54</ele>
        <time>2020-08-24T14:45:47Z</time>
      </trkpt>
      <trkpt lat="49.63882" lon="4.97903">
        <ele>152.99</ele>
        <time>2020-08-24T14:46:03Z</time>
      </trkpt>
      <trkpt lat="49.63862" lon="4.97886">
        <ele>159.72</ele>
        <time>2020-08-24T14:46:20Z</time>
      </trkpt>
      <trkpt lat="49.63848" lon="4.97871">
        <ele>161.16</ele>
        <time>2020-08-24T14:46:39Z</time>
      </trkpt>
      <trkpt lat="49.63832" lon="4.97856">
        <ele>160.68</ele>
        <time>2020-08-24T14:46:56Z</time>
      </trkpt>
      <trkpt lat="49.63813" lon="4.97839">
        <ele>161.64</ele>
        <time>2020-08-24T14:47:16Z</time>
      </trkpt>
      <trkpt lat="49.63796" lon="4.97821">
        <ele>159.24</ele>
        <time>2020-08-24T14:47:37Z</time>
      </trkpt>
      <trkpt lat="49.63777" lon="4.97803">
        <ele>158.75</ele>
        <time>2020-08-24T14:47:56Z</time>
      </trkpt>
      <trkpt lat="49.63773" lon="4.97799">
        <ele>158.75</ele>
        <time>2020-08-24T14:48:00Z</time>
      </trkpt>
      <trkpt lat="49.6375" lon="4.9778">
        <ele>160.2</ele>
        <time>2020-08-24T14:48:23Z</time>
      </trkpt>
      <trkpt lat="49.63733" lon="4.97768">
        <ele>157.79</ele>
        <time>2020-08-24T14:48:41Z</time>
      </trkpt>
      <trkpt lat="49.63714" lon="4.97752">
        <ele>156.35</ele>
        <time>2020-08-24T14:49:01Z</time>
      </trkpt>
      <trkpt lat="49.63696" lon="4.9774">
        <ele>153.95</ele>
        <time>2020-08-24T14:49:20Z</time>
      </trkpt>
      <trkpt lat="49.63677" lon="4.97724">
        <ele>152.03</ele>
        <time>2020-08-24T14:49:39Z</time>
      </trkpt>
      <trkpt lat="49.63658" lon="4.97712">
        <ele>153.95</ele>
        <time>2020-08-24T14:49:56Z</time>
      </trkpt>
      <trkpt lat="49.63636" lon="4.97691">
        <ele>156.83</ele>
        <time>2020-08-24T14:50:18Z</time>
      </trkpt>
      <trkpt lat="49.63616" lon="4.97673">
        <ele>158.27</ele>
        <time>2020-08-24T14:50:40Z</time>
      </trkpt>
      <trkpt lat="49.63607" lon="4.97667">
        <ele>160.2</ele>
        <time>2020-08-24T14:50:54Z</time>
      </trkpt>
      <trkpt lat="49.63608" lon="4.97667">
        <ele>163.08</ele>
        <time>2020-08-24T14:51:17Z</time>
      </trkpt>
      <trkpt lat="49.63598" lon="4.97672">
        <ele>164.04</ele>
        <time>2020-08-24T14:51:33Z</time>
      </trkpt>
      <trkpt lat="49.63597" lon="4.97673">
        <ele>164.04</ele>
        <time>2020-08-24T14:51:34Z</time>
      </trkpt>
      <trkpt lat="49.63579" lon="4.97688">
        <ele>159.72</ele>
        <time>2020-08-24T14:51:54Z</time>
      </trkpt>
      <trkpt lat="49.63566" lon="4.97705">
        <ele>152.51</ele>
        <time>2020-08-24T14:52:13Z</time>
      </trkpt>
      <trkpt lat="49.63552" lon="4.97715">
        <ele>157.79</ele>
        <time>2020-08-24T14:52:33Z</time>
      </trkpt>
      <trkpt lat="49.63551" lon="4.97717">
        <ele>158.75</ele>
        <time>2020-08-24T14:52:34Z</time>
      </trkpt>
      <trkpt lat="49.63538" lon="4.97752">
        <ele>168.37</ele>
        <time>2020-08-24T14:52:55Z</time>
      </trkpt>
      <trkpt lat="49.63528" lon="4.9778">
        <ele>169.81</ele>
        <time>2020-08-24T14:53:15Z</time>
      </trkpt>
      <trkpt lat="49.63514" lon="4.97798">
        <ele>172.21</ele>
        <time>2020-08-24T14:53:32Z</time>
      </trkpt>
      <trkpt lat="49.63496" lon="4.97818">
        <ele>173.66</ele>
        <time>2020-08-24T14:53:51Z</time>
      </trkpt>
      <trkpt lat="49.63481" lon="4.97839">
        <ele>170.29</ele>
        <time>2020-08-24T14:54:11Z</time>
      </trkpt>
      <trkpt lat="49.63468" lon="4.97857">
        <ele>162.6</ele>
        <time>2020-08-24T14:54:31Z</time>
      </trkpt>
      <trkpt lat="49.6345" lon="4.97885">
        <ele>165</ele>
        <time>2020-08-24T14:54:51Z</time>
      </trkpt>
      <trkpt lat="49.63436" lon="4.97895">
        <ele>162.12</ele>
        <time>2020-08-24T14:55:09Z</time>
      </trkpt>
      <trkpt lat="49.63413" lon="4.97909">
        <ele>169.81</ele>
        <time>2020-08-24T14:55:27Z</time>
      </trkpt>
      <trkpt lat="49.63396" lon="4.97925">
        <ele>171.73</ele>
        <time>2020-08-24T14:55:46Z</time>
      </trkpt>
      <trkpt lat="49.63382" lon="4.97941">
        <ele>173.66</ele>
        <time>2020-08-24T14:56:05Z</time>
      </trkpt>
      <trkpt lat="49.63385" lon="4.97946">
        <ele>173.66</ele>
        <time>2020-08-24T14:56:16Z</time>
      </trkpt>
      <trkpt lat="49.63396" lon="4.9797">
        <ele>172.69</ele>
        <time>2020-08-24T14:56:35Z</time>
      </trkpt>
      <trkpt lat="49.63398" lon="4.97974">
        <ele>171.73</ele>
        <time>2020-08-24T14:56:38Z</time>
      </trkpt>
      <trkpt lat="49.63404" lon="4.97994">
        <ele>166.45</ele>
        <time>2020-08-24T14:56:52Z</time>
      </trkpt>
      <trkpt lat="49.63415" lon="4.98014">
        <ele>164.04</ele>
        <time>2020-08-24T14:57:10Z</time>
      </trkpt>
      <trkpt lat="49.63427" lon="4.98025">
        <ele>164.04</ele>
        <time>2020-08-24T14:57:24Z</time>
      </trkpt>
      <trkpt lat="49.6344" lon="4.98041">
        <ele>164.04</ele>
        <time>2020-08-24T14:57:39Z</time>
      </trkpt>
      <trkpt lat="49.63448" lon="4.98043">
        <ele>164.04</ele>
        <time>2020-08-24T14:57:56Z</time>
      </trkpt>
      <trkpt lat="49.63449" lon="4.98042">
        <ele>165.48</ele>
        <time>2020-08-24T14:58:00Z</time>
      </trkpt>
    </trkseg>
  </trk>
</gpx>